Wetterdaten: aktuell Freitag, 30.10.2020 18:18
Datum Zeit Temp. 2m Temp. 5cm Temp. -10cm Feuchte A. Luftdruck Regen Wind Richtung Richtung Taupunkt Windchill Windben
30.10.2020 18:18 13,5 C 13,6 C 10,6 C 74 % 1023,4 hPa 0,0 l/m 9,2 km/h (2 Bft) N-NO 22 9,0 C 11,9 C 15,3 km/h (3 Bft)
30.10.2020 18:16 13,5 C 13,5 C 10,6 C 74 % 1023,4 hPa 0,0 l/m 9,5 km/h (2 Bft) W-SW 247 9,0 C 11,7 C 20,3 km/h (4 Bft)
30.10.2020 18:14 13,5 C 13,6 C 10,6 C 74 % 1023,4 hPa 0,0 l/m 10,5 km/h (2 Bft) W 270 9,0 C 11,2 C 20,3 km/h (4 Bft)
30.10.2020 18:12 13,5 C 13,6 C 10,6 C 74 % 1023,4 hPa 0,0 l/m 10,6 km/h (2 Bft) NO 45 9,0 C 11,2 C 18,2 km/h (3 Bft)
30.10.2020 18:10 13,5 C 13,6 C 10,6 C 74 % 1023,4 hPa 0,0 l/m 12,1 km/h (2 Bft) W 270 9,0 C 10,5 C 18,2 km/h (3 Bft)
30.10.2020 18:08 13,5 C 13,6 C 10,6 C 74 % 1023,4 hPa 0,0 l/m 12,7 km/h (3 Bft) W-NW 292 9,0 C 10,3 C 15,8 km/h (3 Bft)
30.10.2020 18:06 13,4 C 13,6 C 10,6 C 74 % 1023,4 hPa 0,0 l/m 12,7 km/h (3 Bft) NW 315 8,9 C 10,1 C 20,7 km/h (4 Bft)
30.10.2020 18:04 13,4 C 13,5 C 10,6 C 75 % 1023,4 hPa 0,0 l/m 12,4 km/h (3 Bft) N 360 9,1 C 10,3 C 20,7 km/h (4 Bft)
30.10.2020 18:02 13,3 C 13,5 C 10,6 C 75 % 1023,4 hPa 0,0 l/m 13,2 km/h (3 Bft) W-SW 247 9,0 C 9,8 C 14,1 km/h (3 Bft)
30.10.2020 18:00 13,3 C 13,5 C 10,6 C 75 % 1023,2 hPa 0,0 l/m 13,2 km/h (3 Bft) W-SW 247 9,0 C 9,8 C 29,5 km/h (5 Bft)
30.10.2020 17:58 13,3 C 13,4 C 10,6 C 75 % 1023,2 hPa 0,0 l/m 13,7 km/h (3 Bft) N-NW 337 9,0 C 9,6 C 29,5 km/h (5 Bft)
30.10.2020 17:56 13,3 C 13,4 C 10,6 C 75 % 1023,2 hPa 0,0 l/m 13,4 km/h (3 Bft) N 360 9,0 C 9,7 C 23,4 km/h (4 Bft)
30.10.2020 17:54 13,3 C 13,4 C 10,6 C 75 % 1023,2 hPa 0,0 l/m 14,3 km/h (3 Bft) N-NW 337 9,0 C 9,4 C 33,2 km/h (5 Bft)
30.10.2020 17:52 13,3 C 13,3 C 10,6 C 75 % 1023,2 hPa 0,0 l/m 14,0 km/h (3 Bft) W-NW 292 9,0 C 9,5 C 33,2 km/h (5 Bft)
30.10.2020 17:50 13,3 C 13,3 C 10,6 C 75 % 1023,2 hPa 0,0 l/m 13,5 km/h (3 Bft) W-NW 292 9,0 C 9,7 C 28,8 km/h (4 Bft)
30.10.2020 17:48 13,3 C 13,3 C 10,6 C 75 % 1023,2 hPa 0,0 l/m 11,9 km/h (2 Bft) W-NW 292 9,0 C 10,4 C 18,0 km/h (3 Bft)
30.10.2020 17:46 13,3 C 13,3 C 10,6 C 75 % 1023,2 hPa 0,0 l/m 10,5 km/h (2 Bft) N-NW 337 9,0 C 11,0 C 14,7 km/h (3 Bft)
30.10.2020 17:44 13,3 C 13,4 C 10,6 C 75 % 1023,2 hPa 0,0 l/m 11,1 km/h (2 Bft) W-NW 292 9,0 C 10,7 C 22,0 km/h (4 Bft)
30.10.2020 17:42 13,4 C 13,4 C 10,6 C 75 % 1023,2 hPa 0,0 l/m 11,6 km/h (2 Bft) W-SW 247 9,1 C 10,6 C 22,0 km/h (4 Bft)
30.10.2020 17:40 13,4 C 13,4 C 10,6 C 75 % 1023,1 hPa 0,0 l/m 11,6 km/h (2 Bft) W-SW 247 9,1 C 10,6 C 22,0 km/h (4 Bft)
30.10.2020 17:38 13,4 C 13,3 C 10,6 C 75 % 1023,1 hPa 0,0 l/m 11,1 km/h (2 Bft) N-NW 337 9,1 C 10,8 C 13,1 km/h (3 Bft)
30.10.2020 17:36 13,4 C 13,3 C 10,6 C 74 % 1023,1 hPa 0,0 l/m 13,0 km/h (3 Bft) N-NW 337 8,9 C 10,0 C 20,5 km/h (4 Bft)
30.10.2020 17:34 13,4 C 13,4 C 10,6 C 74 % 1023,1 hPa 0,0 l/m 12,9 km/h (3 Bft) O 90 8,9 C 10,1 C 20,5 km/h (4 Bft)
30.10.2020 17:32 13,4 C 13,4 C 10,6 C 74 % 1023,1 hPa 0,0 l/m 14,5 km/h (3 Bft) NW 315 8,9 C 9,4 C 31,9 km/h (5 Bft)
30.10.2020 17:30 13,4 C 13,3 C 10,6 C 74 % 1023,1 hPa 0,0 l/m 14,3 km/h (3 Bft) NW 315 8,9 C 9,5 C 31,9 km/h (5 Bft)
30.10.2020 17:28 13,4 C 13,3 C 10,6 C 74 % 1023,1 hPa 0,0 l/m 14,2 km/h (3 Bft) W 270 8,9 C 9,5 C 23,9 km/h (4 Bft)
30.10.2020 17:26 13,4 C 13,5 C 10,6 C 74 % 1023,1 hPa 0,0 l/m 14,5 km/h (3 Bft) N-NW 337 8,9 C 9,4 C 21,2 km/h (4 Bft)
30.10.2020 17:24 13,4 C 13,5 C 10,6 C 74 % 1023,1 hPa 0,0 l/m 14,3 km/h (3 Bft) SW 225 8,9 C 9,5 C 23,6 km/h (4 Bft)
30.10.2020 17:22 13,4 C 13,4 C 10,6 C 74 % 1023,1 hPa 0,0 l/m 14,3 km/h (3 Bft) N-NW 337 8,9 C 9,5 C 23,6 km/h (4 Bft)
30.10.2020 17:20 13,4 C 13,4 C 10,6 C 74 % 1023,0 hPa 0,0 l/m 14,3 km/h (3 Bft) N-NW 337 8,9 C 9,5 C 33,0 km/h (5 Bft)
30.10.2020 17:18 13,4 C 13,4 C 10,6 C 74 % 1023,0 hPa 0,0 l/m 14,6 km/h (3 Bft) NW 315 8,9 C 9,4 C 33,0 km/h (5 Bft)
30.10.2020 17:16 13,4 C 13,5 C 10,6 C 74 % 1023,0 hPa 0,0 l/m 14,6 km/h (3 Bft) NW 315 8,9 C 9,4 C 21,2 km/h (4 Bft)
30.10.2020 17:14 13,4 C 13,4 C 10,6 C 74 % 1023,0 hPa 0,0 l/m 15,8 km/h (3 Bft) NW 315 8,9 C 9,0 C 29,0 km/h (5 Bft)
30.10.2020 17:12 13,4 C 13,4 C 10,6 C 74 % 1023,0 hPa 0,0 l/m 15,6 km/h (3 Bft) N 360 8,9 C 9,0 C 29,0 km/h (5 Bft)
30.10.2020 17:10 13,4 C 13,5 C 10,6 C 74 % 1023,0 hPa 0,0 l/m 14,8 km/h (3 Bft) W 270 8,9 C 9,3 C 16,0 km/h (3 Bft)
30.10.2020 17:08 13,4 C 13,5 C 10,6 C 74 % 1023,0 hPa 0,0 l/m 14,3 km/h (3 Bft) N-NW 337 8,9 C 9,5 C 25,9 km/h (4 Bft)
30.10.2020 17:06 13,4 C 13,5 C 10,6 C 74 % 1023,0 hPa 0,0 l/m 14,3 km/h (3 Bft) O-SO 112 8,9 C 9,5 C 25,9 km/h (4 Bft)
30.10.2020 17:04 13,4 C 13,5 C 10,6 C 75 % 1023,0 hPa 0,0 l/m 11,7 km/h (2 Bft) NW 315 9,1 C 10,6 C 25,5 km/h (4 Bft)
30.10.2020 17:02 13,4 C 13,5 C 10,6 C 75 % 1023,0 hPa 0,0 l/m 11,7 km/h (2 Bft) W-NW 292 9,1 C 10,6 C 18,2 km/h (3 Bft)
30.10.2020 17:00 13,4 C 13,4 C 10,6 C 75 % 1023,2 hPa 0,0 l/m 11,7 km/h (2 Bft) W-NW 292 9,1 C 10,6 C 22,4 km/h (4 Bft)
30.10.2020 16:58 13,4 C 13,4 C 10,6 C 75 % 1023,2 hPa 0,0 l/m 13,8 km/h (3 Bft) W-NW 292 9,1 C 9,7 C 22,4 km/h (4 Bft)
30.10.2020 16:56 13,4 C 13,3 C 10,6 C 75 % 1023,2 hPa 0,0 l/m 13,7 km/h (3 Bft) N-NW 337 9,1 C 9,7 C 15,3 km/h (3 Bft)
30.10.2020 16:54 13,4 C 13,4 C 10,6 C 75 % 1023,2 hPa 0,0 l/m 13,7 km/h (3 Bft) W 270 9,1 C 9,7 C 15,4 km/h (3 Bft)
30.10.2020 16:52 13,4 C 13,4 C 10,6 C 75 % 1023,2 hPa 0,0 l/m 14,3 km/h (3 Bft) NW 315 9,1 C 9,5 C 18,3 km/h (3 Bft)
30.10.2020 16:50 13,4 C 13,5 C 10,6 C 75 % 1023,2 hPa 0,0 l/m 14,3 km/h (3 Bft) NW 315 9,1 C 9,5 C 22,6 km/h (4 Bft)
30.10.2020 16:48 13,4 C 13,4 C 10,6 C 75 % 1023,2 hPa 0,0 l/m 13,4 km/h (3 Bft) W-SW 247 9,1 C 9,9 C 31,5 km/h (5 Bft)
30.10.2020 16:46 13,4 C 13,4 C 10,6 C 75 % 1023,2 hPa 0,0 l/m 12,9 km/h (3 Bft) W-NW 292 9,1 C 10,1 C 31,5 km/h (5 Bft)
30.10.2020 16:44 13,4 C 13,5 C 10,6 C 75 % 1023,2 hPa 0,0 l/m 11,6 km/h (2 Bft) N-NW 337 9,1 C 10,6 C 13,9 km/h (3 Bft)
30.10.2020 16:42 13,4 C 13,5 C 10,6 C 75 % 1023,2 hPa 0,0 l/m 10,9 km/h (2 Bft) W-SW 247 9,1 C 10,9 C 13,9 km/h (3 Bft)
30.10.2020 16:40 13,4 C 13,5 C 10,6 C 75 % 1023,0 hPa 0,0 l/m 10,9 km/h (2 Bft) W-SW 247 9,1 C 10,9 C 27,2 km/h (4 Bft)
30.10.2020 16:38 13,4 C 13,5 C 10,6 C 75 % 1023,0 hPa 0,0 l/m 11,3 km/h (2 Bft) W 270 9,1 C 10,7 C 27,2 km/h (4 Bft)
30.10.2020 16:36 13,4 C 13,5 C 10,6 C 75 % 1023,0 hPa 0,0 l/m 10,3 km/h (2 Bft) W 270 9,1 C 11,2 C 9,3 km/h (2 Bft)
30.10.2020 16:34 13,4 C 13,5 C 10,6 C 75 % 1023,0 hPa 0,0 l/m 11,1 km/h (2 Bft) W-SW 247 9,1 C 10,8 C 21,8 km/h (4 Bft)
30.10.2020 16:32 13,4 C 13,5 C 10,6 C 75 % 1023,0 hPa 0,0 l/m 10,5 km/h (2 Bft) W 270 9,1 C 11,1 C 21,8 km/h (4 Bft)
30.10.2020 16:30 13,4 C 13,5 C 10,6 C 75 % 1023,0 hPa 0,0 l/m 11,4 km/h (2 Bft) W 270 9,1 C 10,7 C 31,1 km/h (5 Bft)
30.10.2020 16:28 13,4 C 13,4 C 10,6 C 75 % 1023,0 hPa 0,0 l/m 11,9 km/h (2 Bft) W-NW 292 9,1 C 10,5 C 31,1 km/h (5 Bft)
30.10.2020 16:26 13,4 C 13,4 C 10,6 C 75 % 1023,0 hPa 0,0 l/m 11,6 km/h (2 Bft) N-NW 337 9,1 C 10,6 C 31,1 km/h (5 Bft)
30.10.2020 16:24 13,4 C 13,4 C 10,6 C 75 % 1023,0 hPa 0,0 l/m 12,1 km/h (2 Bft) N-NW 337 9,1 C 10,4 C 31,1 km/h (5 Bft)
30.10.2020 16:22 13,4 C 13,5 C 10,6 C 75 % 1023,0 hPa 0,0 l/m 10,5 km/h (2 Bft) W-SW 247 9,1 C 11,1 C 24,1 km/h (4 Bft)
30.10.2020 16:20 13,4 C 13,5 C 10,6 C 75 % 1022,9 hPa 0,0 l/m 10,5 km/h (2 Bft) W-SW 247 9,1 C 11,1 C 24,1 km/h (4 Bft)
30.10.2020 16:18 13,4 C 13,5 C 10,6 C 75 % 1022,9 hPa 0,0 l/m 10,0 km/h (2 Bft) W 270 9,1 C 11,4 C 22,0 km/h (4 Bft)
30.10.2020 16:16 13,4 C 13,5 C 10,6 C 75 % 1022,9 hPa 0,0 l/m 9,8 km/h (2 Bft) W-SW 247 9,1 C 11,5 C 22,0 km/h (4 Bft)
30.10.2020 16:14 13,4 C 13,4 C 10,6 C 75 % 1022,9 hPa 0,0 l/m 9,3 km/h (2 Bft) N-NW 337 9,1 C 11,7 C 14,5 km/h (3 Bft)
30.10.2020 16:12 13,5 C 13,4 C 10,6 C 75 % 1022,9 hPa 0,0 l/m 10,1 km/h (2 Bft) NW 315 9,2 C 11,4 C 15,4 km/h (3 Bft)
30.10.2020 16:10 13,5 C 13,5 C 10,6 C 75 % 1022,9 hPa 0,0 l/m 10,5 km/h (2 Bft) N-NW 337 9,2 C 11,2 C 15,4 km/h (3 Bft)
30.10.2020 16:08 13,5 C 13,6 C 10,6 C 75 % 1022,9 hPa 0,0 l/m 12,1 km/h (2 Bft) O-NO 67 9,2 C 10,5 C 26,7 km/h (4 Bft)
30.10.2020 16:06 13,5 C 13,5 C 10,6 C 75 % 1022,9 hPa 0,0 l/m 13,5 km/h (3 Bft) NW 315 9,2 C 9,9 C 26,7 km/h (4 Bft)
30.10.2020 16:04 13,5 C 13,5 C 10,5 C 75 % 1022,9 hPa 0,0 l/m 12,9 km/h (3 Bft) NW 315 9,2 C 10,2 C 15,3 km/h (3 Bft)
30.10.2020 16:02 13,4 C 13,5 C 10,5 C 75 % 1022,9 hPa 0,0 l/m 12,6 km/h (3 Bft) N 360 9,1 C 10,2 C 15,3 km/h (3 Bft)
30.10.2020 16:00 13,4 C 13,5 C 10,5 C 75 % 1022,7 hPa 0,0 l/m 12,6 km/h (3 Bft) N 360 9,1 C 10,2 C 27,4 km/h (4 Bft)
30.10.2020 15:58 13,4 C 13,5 C 10,5 C 75 % 1022,7 hPa 0,0 l/m 12,2 km/h (2 Bft) NW 315 9,1 C 10,3 C 27,4 km/h (4 Bft)
30.10.2020 15:56 13,4 C 13,5 C 10,5 C 76 % 1022,7 hPa 0,0 l/m 9,5 km/h (2 Bft) W 270 9,3 C 11,6 C 26,3 km/h (4 Bft)
30.10.2020 15:54 13,4 C 13,4 C 10,6 C 76 % 1022,7 hPa 0,0 l/m 9,3 km/h (2 Bft) N-NW 337 9,3 C 11,7 C 26,3 km/h (4 Bft)
30.10.2020 15:52 13,4 C 13,5 C 10,5 C 76 % 1022,7 hPa 0,0 l/m 9,3 km/h (2 Bft) NW 315 9,3 C 11,7 C 15,6 km/h (3 Bft)
30.10.2020 15:50 13,4 C 13,5 C 10,5 C 76 % 1022,7 hPa 0,0 l/m 10,3 km/h (2 Bft) W-SW 247 9,3 C 11,2 C 23,4 km/h (4 Bft)
30.10.2020 15:48 13,3 C 13,4 C 10,5 C 76 % 1022,7 hPa 0,0 l/m 10,3 km/h (2 Bft) W 270 9,2 C 11,1 C 23,4 km/h (4 Bft)
30.10.2020 15:46 13,3 C 13,4 C 10,5 C 76 % 1022,7 hPa 0,0 l/m 11,4 km/h (2 Bft) N-NW 337 9,2 C 10,6 C 19,7 km/h (3 Bft)
30.10.2020 15:44 13,3 C 13,5 C 10,5 C 76 % 1022,7 hPa 0,0 l/m 12,1 km/h (2 Bft) S-SW 202 9,2 C 10,3 C 28,0 km/h (4 Bft)
30.10.2020 15:42 13,3 C 13,5 C 10,5 C 76 % 1022,7 hPa 0,0 l/m 11,7 km/h (2 Bft) W-NW 292 9,2 C 10,4 C 28,0 km/h (4 Bft)
30.10.2020 15:40 13,3 C 13,5 C 10,5 C 76 % 1023,0 hPa 0,0 l/m 11,7 km/h (2 Bft) W-NW 292 9,2 C 10,4 C 28,0 km/h (4 Bft)
30.10.2020 15:38 13,3 C 13,4 C 10,5 C 76 % 1023,0 hPa 0,0 l/m 11,1 km/h (2 Bft) NW 315 9,2 C 10,7 C 30,9 km/h (5 Bft)
30.10.2020 15:36 13,3 C 13,4 C 10,5 C 76 % 1023,0 hPa 0,0 l/m 11,3 km/h (2 Bft) W-NW 292 9,2 C 10,6 C 30,9 km/h (5 Bft)
30.10.2020 15:34 13,3 C 13,4 C 10,5 C 76 % 1023,0 hPa 0,0 l/m 10,9 km/h (2 Bft) N-NO 22 9,2 C 10,8 C 29,4 km/h (5 Bft)
30.10.2020 15:32 13,3 C 13,3 C 10,5 C 76 % 1023,0 hPa 0,0 l/m 10,0 km/h (2 Bft) NW 315 9,2 C 11,2 C 14,5 km/h (3 Bft)
30.10.2020 15:30 13,3 C 13,4 C 10,5 C 76 % 1023,0 hPa 0,0 l/m 10,3 km/h (2 Bft) W 270 9,2 C 11,1 C 16,8 km/h (3 Bft)
30.10.2020 15:28 13,3 C 13,3 C 10,5 C 76 % 1023,0 hPa 0,0 l/m 10,3 km/h (2 Bft) W 270 9,2 C 11,1 C 16,8 km/h (3 Bft)
30.10.2020 15:26 13,3 C 13,3 C 10,5 C 77 % 1023,0 hPa 0,0 l/m 9,5 km/h (2 Bft) NW 315 9,4 C 11,5 C 18,0 km/h (3 Bft)
30.10.2020 15:24 13,3 C 13,3 C 10,5 C 77 % 1023,0 hPa 0,0 l/m 10,6 km/h (2 Bft) N-NW 337 9,4 C 10,9 C 18,0 km/h (3 Bft)
30.10.2020 15:22 13,3 C 13,3 C 10,5 C 77 % 1023,0 hPa 0,0 l/m 11,6 km/h (2 Bft) W-NW 292 9,4 C 10,5 C 14,9 km/h (3 Bft)
30.10.2020 15:20 13,3 C 13,3 C 10,5 C 77 % 1022,9 hPa 0,0 l/m 11,6 km/h (2 Bft) W-NW 292 9,4 C 10,5 C 27,8 km/h (4 Bft)
30.10.2020 15:18 13,3 C 13,4 C 10,5 C 76 % 1022,9 hPa 0,0 l/m 11,6 km/h (2 Bft) W-NW 292 9,2 C 10,5 C 27,8 km/h (4 Bft)
30.10.2020 15:16 13,3 C 13,4 C 10,5 C 76 % 1022,9 hPa 0,0 l/m 10,8 km/h (2 Bft) W 270 9,2 C 10,9 C 24,1 km/h (4 Bft)
30.10.2020 15:14 13,3 C 13,4 C 10,5 C 76 % 1022,9 hPa 0,0 l/m 10,6 km/h (2 Bft) NW 315 9,2 C 10,9 C 24,1 km/h (4 Bft)
30.10.2020 15:12 13,2 C 13,3 C 10,5 C 77 % 1022,9 hPa 0,0 l/m 8,5 km/h (2 Bft) W 270 9,3 C 11,9 C 27,4 km/h (4 Bft)
30.10.2020 15:10 13,2 C 13,3 C 10,5 C 77 % 1022,9 hPa 0,0 l/m 8,5 km/h (2 Bft) W 270 9,3 C 11,9 C 27,4 km/h (4 Bft)
30.10.2020 15:08 13,2 C 13,3 C 10,5 C 77 % 1022,9 hPa 0,0 l/m 8,9 km/h (2 Bft) N-NW 337 9,3 C 11,7 C 21,0 km/h (4 Bft)
30.10.2020 15:06 13,2 C 13,3 C 10,5 C 77 % 1022,9 hPa 0,0 l/m 10,1 km/h (2 Bft) W-SW 247 9,3 C 11,1 C 18,3 km/h (3 Bft)
30.10.2020 15:04 13,3 C 13,4 C 10,5 C 77 % 1022,9 hPa 0,0 l/m 11,3 km/h (2 Bft) W-SW 247 9,4 C 10,6 C 18,3 km/h (3 Bft)
30.10.2020 15:02 13,3 C 13,3 C 10,5 C 77 % 1022,9 hPa 0,0 l/m 11,9 km/h (2 Bft) NW 315 9,4 C 10,4 C 13,9 km/h (3 Bft)
30.10.2020 15:00 13,3 C 13,4 C 10,5 C 77 % 1023,0 hPa 0,0 l/m 11,9 km/h (2 Bft) NW 315 9,4 C 10,4 C 23,6 km/h (4 Bft)
30.10.2020 14:58 13,2 C 13,4 C 10,5 C 77 % 1023,0 hPa 0,0 l/m 12,2 km/h (2 Bft) W 270 9,3 C 10,1 C 23,6 km/h (4 Bft)
30.10.2020 14:56 13,2 C 13,3 C 10,5 C 77 % 1023,0 hPa 0,0 l/m 12,2 km/h (2 Bft) NW 315 9,3 C 10,1 C 13,5 km/h (3 Bft)
30.10.2020 14:54 13,2 C 13,4 C 10,5 C 77 % 1023,0 hPa 0,0 l/m 12,1 km/h (2 Bft) O-NO 67 9,3 C 10,2 C 17,0 km/h (3 Bft)
30.10.2020 14:52 13,2 C 13,4 C 10,5 C 77 % 1023,0 hPa 0,0 l/m 11,9 km/h (2 Bft) W 270 9,3 C 10,2 C 17,0 km/h (3 Bft)
30.10.2020 14:50 13,2 C 13,4 C 10,5 C 77 % 1023,0 hPa 0,0 l/m 10,5 km/h (2 Bft) W 270 9,3 C 10,9 C 21,0 km/h (4 Bft)
30.10.2020 14:48 13,2 C 13,4 C 10,5 C 77 % 1023,0 hPa 0,0 l/m 10,1 km/h (2 Bft) W 270 9,3 C 11,1 C 26,5 km/h (4 Bft)
30.10.2020 14:46 13,2 C 13,4 C 10,5 C 77 % 1023,0 hPa 0,0 l/m 10,0 km/h (2 Bft) N-NO 22 9,3 C 11,1 C 26,5 km/h (4 Bft)
30.10.2020 14:44 13,2 C 13,4 C 10,5 C 77 % 1023,0 hPa 0,0 l/m 9,2 km/h (2 Bft) W-NW 292 9,3 C 11,5 C 22,8 km/h (4 Bft)
30.10.2020 14:42 13,2 C 13,3 C 10,5 C 77 % 1023,0 hPa 0,0 l/m 9,7 km/h (2 Bft) W 270 9,3 C 11,3 C 11,0 km/h (2 Bft)
30.10.2020 14:40 13,2 C 13,3 C 10,5 C 77 % 1022,8 hPa 0,0 l/m 9,7 km/h (2 Bft) W 270 9,3 C 11,3 C 11,0 km/h (2 Bft)
30.10.2020 14:38 13,2 C 13,4 C 10,5 C 77 % 1022,8 hPa 0,0 l/m 10,1 km/h (2 Bft) SW 225 9,3 C 11,1 C 21,4 km/h (4 Bft)
30.10.2020 14:36 13,2 C 13,4 C 10,5 C 77 % 1022,8 hPa 0,0 l/m 10,6 km/h (2 Bft) W 270 9,3 C 10,8 C 21,4 km/h (4 Bft)
30.10.2020 14:34 13,2 C 13,4 C 10,5 C 77 % 1022,8 hPa 0,0 l/m 10,9 km/h (2 Bft) W 270 9,3 C 10,7 C 9,8 km/h (2 Bft)
30.10.2020 14:32 13,1 C 13,4 C 10,5 C 77 % 1022,8 hPa 0,0 l/m 10,9 km/h (2 Bft) NW 315 9,2 C 10,6 C 29,2 km/h (5 Bft)
30.10.2020 14:30 13,1 C 13,4 C 10,5 C 77 % 1022,8 hPa 0,0 l/m 11,1 km/h (2 Bft) NW 315 9,2 C 10,5 C 29,2 km/h (5 Bft)
30.10.2020 14:28 13,1 C 13,3 C 10,5 C 78 % 1022,8 hPa 0,0 l/m 11,3 km/h (2 Bft) NW 315 9,4 C 10,4 C 19,9 km/h (4 Bft)
30.10.2020 14:26 13,1 C 13,3 C 10,5 C 78 % 1022,8 hPa 0,0 l/m 10,8 km/h (2 Bft) W-SW 247 9,4 C 10,6 C 20,5 km/h (4 Bft)
30.10.2020 14:24 13,0 C 13,2 C 10,5 C 78 % 1022,8 hPa 0,0 l/m 9,7 km/h (2 Bft) W-SW 247 9,3 C 11,1 C 20,5 km/h (4 Bft)
30.10.2020 14:22 13,0 C 13,2 C 10,5 C 78 % 1022,8 hPa 0,0 l/m 10,3 km/h (2 Bft) N-NW 337 9,3 C 10,8 C 10,6 km/h (2 Bft)
30.10.2020 14:20 13,0 C 13,2 C 10,5 C 78 % 1022,8 hPa 0,0 l/m 10,3 km/h (2 Bft) N-NW 337 9,3 C 10,8 C 13,5 km/h (3 Bft)
30.10.2020 14:18 13,0 C 13,2 C 10,5 C 78 % 1022,8 hPa 0,0 l/m 10,0 km/h (2 Bft) SW 225 9,3 C 10,9 C 15,8 km/h (3 Bft)
30.10.2020 14:16 13,0 C 13,1 C 10,5 C 78 % 1022,8 hPa 0,0 l/m 9,5 km/h (2 Bft) NO 45 9,3 C 11,2 C 19,1 km/h (3 Bft)
30.10.2020 14:14 13,0 C 13,2 C 10,5 C 78 % 1022,8 hPa 0,0 l/m 9,8 km/h (2 Bft) N 360 9,3 C 11,0 C 22,2 km/h (4 Bft)
30.10.2020 14:12 13,0 C 13,1 C 10,5 C 78 % 1022,8 hPa 0,0 l/m 10,3 km/h (2 Bft) W-SW 247 9,3 C 10,8 C 22,2 km/h (4 Bft)
30.10.2020 14:10 13,0 C 13,2 C 10,5 C 78 % 1022,8 hPa 0,0 l/m 9,8 km/h (2 Bft) W-SW 247 9,3 C 11,0 C 14,9 km/h (3 Bft)
30.10.2020 14:08 13,0 C 13,1 C 10,4 C 78 % 1022,8 hPa 0,0 l/m 9,8 km/h (2 Bft) NW 315 9,3 C 11,0 C 17,2 km/h (3 Bft)
30.10.2020 14:06 12,9 C 13,1 C 10,5 C 79 % 1022,8 hPa 0,0 l/m 9,5 km/h (2 Bft) NW 315 9,3 C 11,1 C 20,3 km/h (4 Bft)
30.10.2020 14:04 12,9 C 13,1 C 10,4 C 79 % 1022,8 hPa 0,0 l/m 8,7 km/h (2 Bft) N-NW 337 9,3 C 11,5 C 20,3 km/h (4 Bft)
30.10.2020 14:02 12,9 C 13,0 C 10,5 C 79 % 1022,8 hPa 0,0 l/m 8,0 km/h (2 Bft) W 270 9,3 C 11,9 C 13,5 km/h (3 Bft)
30.10.2020 14:00 12,9 C 13,0 C 10,4 C 79 % 1022,8 hPa 0,0 l/m 8,0 km/h (2 Bft) W 270 9,3 C 11,9 C 21,4 km/h (4 Bft)
30.10.2020 13:58 12,9 C 13,0 C 10,4 C 79 % 1022,8 hPa 0,0 l/m 8,5 km/h (2 Bft) NW 315 9,3 C 11,6 C 21,4 km/h (4 Bft)
30.10.2020 13:56 13,0 C 13,1 C 10,5 C 78 % 1022,8 hPa 0,0 l/m 8,9 km/h (2 Bft) SW 225 9,3 C 11,5 C 16,8 km/h (3 Bft)
30.10.2020 13:54 13,0 C 13,0 C 10,4 C 78 % 1022,8 hPa 0,0 l/m 9,0 km/h (2 Bft) W 270 9,3 C 11,4 C 16,8 km/h (3 Bft)
30.10.2020 13:52 12,9 C 13,1 C 10,4 C 79 % 1022,8 hPa 0,0 l/m 9,2 km/h (2 Bft) SW 225 9,3 C 11,2 C 17,4 km/h (3 Bft)
30.10.2020 13:50 12,9 C 13,1 C 10,4 C 79 % 1022,8 hPa 0,0 l/m 8,5 km/h (2 Bft) NW 315 9,3 C 11,6 C 17,4 km/h (3 Bft)
30.10.2020 13:48 12,8 C 13,1 C 10,4 C 80 % 1022,8 hPa 0,0 l/m 8,9 km/h (2 Bft) W 270 9,4 C 11,3 C 25,1 km/h (4 Bft)
30.10.2020 13:46 12,8 C 12,9 C 10,4 C 80 % 1022,8 hPa 0,0 l/m 9,8 km/h (2 Bft) NW 315 9,4 C 10,8 C 25,1 km/h (4 Bft)
30.10.2020 13:44 12,8 C 12,9 C 10,4 C 80 % 1022,8 hPa 0,0 l/m 10,9 km/h (2 Bft) W 270 9,4 C 10,2 C 15,3 km/h (3 Bft)
30.10.2020 13:42 12,9 C 12,9 C 10,4 C 79 % 1022,8 hPa 0,0 l/m 13,7 km/h (3 Bft) NW 315 9,3 C 9,1 C 15,3 km/h (3 Bft)
30.10.2020 13:40 12,9 C 13,0 C 10,4 C 79 % 1022,4 hPa 0,0 l/m 13,7 km/h (3 Bft) NW 315 9,3 C 9,1 C 16,2 km/h (3 Bft)
30.10.2020 13:38 12,9 C 13,0 C 10,4 C 79 % 1022,4 hPa 0,0 l/m 14,6 km/h (3 Bft) NW 315 9,3 C 8,8 C 22,4 km/h (4 Bft)
30.10.2020 13:36 12,8 C 13,0 C 10,4 C 80 % 1022,4 hPa 0,0 l/m 13,8 km/h (3 Bft) W 270 9,4 C 9,0 C 29,9 km/h (5 Bft)
30.10.2020 13:34 12,8 C 13,0 C 10,4 C 80 % 1022,4 hPa 0,0 l/m 14,0 km/h (3 Bft) W-NW 292 9,4 C 8,9 C 29,9 km/h (5 Bft)
30.10.2020 13:32 12,8 C 13,0 C 10,4 C 80 % 1022,4 hPa 0,0 l/m 13,4 km/h (3 Bft) W 270 9,4 C 9,1 C 50,6 km/h (7 Bft)
30.10.2020 13:30 12,7 C 13,0 C 10,4 C 80 % 1022,4 hPa 0,0 l/m 12,2 km/h (2 Bft) W-NW 292 9,3 C 9,5 C 25,1 km/h (4 Bft)
30.10.2020 13:28 12,7 C 12,9 C 10,4 C 80 % 1022,4 hPa 0,0 l/m 12,7 km/h (3 Bft) W-SW 247 9,3 C 9,3 C 25,1 km/h (4 Bft)
30.10.2020 13:26 12,7 C 12,9 C 10,4 C 80 % 1022,4 hPa 0,0 l/m 13,2 km/h (3 Bft) W-NW 292 9,3 C 9,1 C 23,0 km/h (4 Bft)
30.10.2020 13:24 12,6 C 12,7 C 10,4 C 80 % 1022,4 hPa 0,1 l/m 13,2 km/h (3 Bft) W-SW 247 9,2 C 9,0 C 29,9 km/h (5 Bft)
30.10.2020 13:22 12,6 C 12,6 C 10,4 C 81 % 1022,4 hPa 0,0 l/m 13,5 km/h (3 Bft) N-NW 337 9,4 C 8,9 C 29,9 km/h (5 Bft)
30.10.2020 13:20 12,6 C 12,6 C 10,5 C 81 % 1022,6 hPa 0,0 l/m 13,5 km/h (3 Bft) N-NW 337 9,4 C 8,9 C 29,9 km/h (5 Bft)
30.10.2020 13:18 12,5 C 12,6 C 10,5 C 81 % 1022,6 hPa 0,0 l/m 14,5 km/h (3 Bft) N-NW 337 9,3 C 8,4 C 26,1 km/h (4 Bft)
30.10.2020 13:16 12,5 C 12,5 C 10,5 C 81 % 1022,6 hPa 0,0 l/m 14,0 km/h (3 Bft) W 270 9,3 C 8,5 C 26,1 km/h (4 Bft)
30.10.2020 13:14 12,5 C 12,5 C 10,5 C 81 % 1022,6 hPa 0,0 l/m 13,5 km/h (3 Bft) N-NW 337 9,3 C 8,8 C 21,2 km/h (4 Bft)
30.10.2020 13:12 12,5 C 12,5 C 10,5 C 81 % 1022,6 hPa 0,0 l/m 12,9 km/h (3 Bft) N 360 9,3 C 9,0 C 20,1 km/h (4 Bft)
30.10.2020 13:10 12,4 C 12,5 C 10,5 C 81 % 1022,6 hPa 0,0 l/m 12,6 km/h (3 Bft) NW 315 9,2 C 9,0 C 26,7 km/h (4 Bft)
30.10.2020 13:08 12,4 C 12,5 C 10,5 C 81 % 1022,6 hPa 0,0 l/m 12,7 km/h (3 Bft) W-SW 247 9,2 C 9,0 C 30,5 km/h (5 Bft)
30.10.2020 13:06 12,4 C 12,5 C 10,5 C 81 % 1022,6 hPa 0,0 l/m 12,1 km/h (2 Bft) NW 315 9,2 C 9,2 C 30,5 km/h (5 Bft)
30.10.2020 13:04 12,4 C 12,4 C 10,5 C 81 % 1022,6 hPa 0,0 l/m 12,1 km/h (2 Bft) W-SW 247 9,2 C 9,2 C 19,9 km/h (4 Bft)
30.10.2020 13:02 12,4 C 12,3 C 10,5 C 81 % 1022,6 hPa 0,0 l/m 12,2 km/h (2 Bft) W-NW 292 9,2 C 9,2 C 23,0 km/h (4 Bft)
30.10.2020 13:00 12,4 C 12,3 C 10,5 C 81 % 1023,0 hPa 0,1 l/m 12,2 km/h (2 Bft) W-NW 292 9,2 C 9,2 C 23,0 km/h (4 Bft)
30.10.2020 12:58 12,4 C 12,3 C 10,5 C 81 % 1023,0 hPa 0,0 l/m 12,4 km/h (3 Bft) S-SW 202 9,2 C 9,1 C 33,4 km/h (5 Bft)
30.10.2020 12:56 12,4 C 12,2 C 10,5 C 81 % 1023,0 hPa 0,0 l/m 12,4 km/h (3 Bft) N 360 9,2 C 9,1 C 33,4 km/h (5 Bft)
30.10.2020 12:54 12,4 C 12,2 C 10,5 C 81 % 1023,0 hPa 0,0 l/m 12,2 km/h (2 Bft) NW 315 9,2 C 9,2 C 13,5 km/h (3 Bft)
30.10.2020 12:52 12,4 C 12,2 C 10,5 C 81 % 1023,0 hPa 0,0 l/m 12,1 km/h (2 Bft) SW 225 9,2 C 9,2 C 30,7 km/h (5 Bft)
30.10.2020 12:50 12,4 C 12,2 C 10,4 C 81 % 1023,0 hPa 0,0 l/m 13,2 km/h (3 Bft) W-NW 292 9,2 C 8,8 C 30,7 km/h (5 Bft)
30.10.2020 12:48 12,4 C 12,5 C 10,4 C 81 % 1023,0 hPa 0,0 l/m 12,6 km/h (3 Bft) N-NO 22 9,2 C 9,0 C 21,4 km/h (4 Bft)
30.10.2020 12:46 12,4 C 12,4 C 10,4 C 81 % 1023,0 hPa 0,0 l/m 12,4 km/h (3 Bft) NW 315 9,2 C 9,1 C 24,1 km/h (4 Bft)
30.10.2020 12:44 12,4 C 12,5 C 10,4 C 81 % 1023,0 hPa 0,0 l/m 12,7 km/h (3 Bft) NW 315 9,2 C 9,0 C 24,1 km/h (4 Bft)
30.10.2020 12:42 12,4 C 12,5 C 10,3 C 81 % 1023,0 hPa 0,0 l/m 11,4 km/h (2 Bft) SW 225 9,2 C 9,6 C 20,5 km/h (4 Bft)
30.10.2020 12:40 12,4 C 12,6 C 10,3 C 81 % 1022,8 hPa 0,0 l/m 11,4 km/h (2 Bft) SW 225 9,2 C 9,6 C 20,5 km/h (4 Bft)
30.10.2020 12:38 12,4 C 12,5 C 10,3 C 81 % 1022,8 hPa 0,0 l/m 11,1 km/h (2 Bft) W-NW 292 9,2 C 9,7 C 19,5 km/h (3 Bft)
30.10.2020 12:36 12,4 C 12,5 C 10,3 C 81 % 1022,8 hPa 0,0 l/m 11,4 km/h (2 Bft) N-NW 337 9,2 C 9,6 C 28,0 km/h (4 Bft)
30.10.2020 12:34 12,4 C 12,6 C 10,3 C 81 % 1022,8 hPa 0,0 l/m 11,1 km/h (2 Bft) W-NW 292 9,2 C 9,7 C 28,0 km/h (4 Bft)
30.10.2020 12:32 12,4 C 12,7 C 10,3 C 81 % 1022,8 hPa 0,0 l/m 10,8 km/h (2 Bft) W 270 9,2 C 9,8 C 19,5 km/h (3 Bft)
30.10.2020 12:30 12,3 C 12,7 C 10,3 C 81 % 1022,8 hPa 0,0 l/m 10,9 km/h (2 Bft) N 360 9,1 C 9,7 C 21,8 km/h (4 Bft)
30.10.2020 12:28 12,3 C 12,7 C 10,3 C 81 % 1022,8 hPa 0,0 l/m 10,5 km/h (2 Bft) W 270 9,1 C 9,9 C 21,8 km/h (4 Bft)
30.10.2020 12:26 12,3 C 12,6 C 10,3 C 81 % 1022,8 hPa 0,0 l/m 10,1 km/h (2 Bft) W 270 9,1 C 10,1 C 17,0 km/h (3 Bft)
30.10.2020 12:24 12,3 C 12,7 C 10,3 C 82 % 1022,8 hPa 0,0 l/m 10,3 km/h (2 Bft) NW 315 9,3 C 10,0 C 17,0 km/h (3 Bft)
30.10.2020 12:22 12,2 C 12,6 C 10,3 C 82 % 1022,8 hPa 0,0 l/m 8,2 km/h (2 Bft) SO 135 9,2 C 11,0 C 11,6 km/h (2 Bft)
30.10.2020 12:20 12,2 C 12,6 C 10,3 C 82 % 1022,8 hPa 0,0 l/m 8,2 km/h (2 Bft) SO 135 9,2 C 11,0 C 15,4 km/h (3 Bft)
30.10.2020 12:18 12,2 C 12,5 C 10,3 C 82 % 1022,8 hPa 0,0 l/m 9,0 km/h (2 Bft) N-NW 337 9,2 C 10,6 C 15,4 km/h (3 Bft)
30.10.2020 12:16 12,2 C 12,5 C 10,3 C 82 % 1022,8 hPa 0,0 l/m 8,0 km/h (2 Bft) W 270 9,2 C 11,2 C 19,3 km/h (3 Bft)
30.10.2020 12:14 12,1 C 12,5 C 10,3 C 82 % 1022,8 hPa 0,0 l/m 8,0 km/h (2 Bft) W 270 9,1 C 11,1 C 19,3 km/h (3 Bft)
30.10.2020 12:12 12,1 C 12,5 C 10,3 C 82 % 1022,8 hPa 0,0 l/m 8,4 km/h (2 Bft) N-NW 337 9,1 C 10,8 C 12,2 km/h (2 Bft)
30.10.2020 12:10 12,0 C 12,4 C 10,3 C 82 % 1022,8 hPa 0,0 l/m 9,0 km/h (2 Bft) N 360 9,0 C 10,4 C 17,6 km/h (3 Bft)
30.10.2020 12:08 12,0 C 12,4 C 10,3 C 82 % 1022,8 hPa 0,0 l/m 8,7 km/h (2 Bft) W 270 9,0 C 10,5 C 17,6 km/h (3 Bft)
30.10.2020 12:06 12,0 C 12,3 C 10,3 C 82 % 1022,8 hPa 0,1 l/m 8,5 km/h (2 Bft) N-NW 337 9,0 C 10,6 C 13,3 km/h (3 Bft)
30.10.2020 12:04 12,0 C 12,3 C 10,3 C 82 % 1022,8 hPa 0,0 l/m 8,4 km/h (2 Bft) N-NW 337 9,0 C 10,7 C 14,5 km/h (3 Bft)
30.10.2020 12:02 11,9 C 12,3 C 10,3 C 83 % 1022,8 hPa 0,0 l/m 7,1 km/h (2 Bft) W 270 9,1 C 11,4 C 14,5 km/h (3 Bft)
30.10.2020 12:00 11,9 C 12,3 C 10,3 C 83 % 1023,0 hPa 0,0 l/m 7,1 km/h (2 Bft) W 270 9,1 C 11,4 C 14,5 km/h (3 Bft)
30.10.2020 11:58 11,9 C 12,2 C 10,3 C 83 % 1023,0 hPa 0,0 l/m 7,1 km/h (2 Bft) W 270 9,1 C 11,4 C 13,7 km/h (3 Bft)
30.10.2020 11:56 11,9 C 12,2 C 10,3 C 83 % 1023,0 hPa 0,0 l/m 6,3 km/h (2 Bft) N-NW 337 9,1 C 11,9 C 13,7 km/h (3 Bft)
30.10.2020 11:54 11,9 C 12,2 C 10,3 C 83 % 1023,0 hPa 0,0 l/m 6,3 km/h (2 Bft) N-NW 337 9,1 C 11,9 C 13,5 km/h (3 Bft)
30.10.2020 11:52 11,8 C 12,1 C 10,3 C 83 % 1023,0 hPa 0,0 l/m 6,3 km/h (2 Bft) NW 315 9,0 C 11,8 C 14,7 km/h (3 Bft)
30.10.2020 11:50 11,8 C 12,0 C 10,3 C 83 % 1023,0 hPa 0,0 l/m 6,3 km/h (2 Bft) NW 315 9,0 C 11,8 C 16,6 km/h (3 Bft)
30.10.2020 11:48 11,8 C 12,0 C 10,3 C 83 % 1023,0 hPa 0,0 l/m 6,3 km/h (2 Bft) NW 315 9,0 C 11,8 C 16,6 km/h (3 Bft)
30.10.2020 11:46 11,8 C 11,9 C 10,3 C 83 % 1023,0 hPa 0,0 l/m 5,1 km/h (1 Bft) W-NW 292 9,0 C 11,8 C 11,6 km/h (2 Bft)
30.10.2020 11:44 11,8 C 11,9 C 10,3 C 83 % 1023,0 hPa 0,0 l/m 5,3 km/h (1 Bft) SW 225 9,0 C 11,8 C 11,6 km/h (2 Bft)
30.10.2020 11:42 11,8 C 11,8 C 10,3 C 82 % 1023,0 hPa 0,0 l/m 6,4 km/h (2 Bft) N-NW 337 8,8 C 11,8 C 6,4 km/h (2 Bft)
30.10.2020 11:40 11,8 C 11,8 C 10,3 C 82 % 1023,1 hPa 0,0 l/m 6,4 km/h (2 Bft) N-NW 337 8,8 C 11,8 C 18,5 km/h (3 Bft)
30.10.2020 11:38 11,8 C 11,7 C 10,3 C 82 % 1023,1 hPa 0,0 l/m 7,4 km/h (2 Bft) W-NW 292 8,8 C 11,1 C 18,5 km/h (3 Bft)
30.10.2020 11:36 11,9 C 11,8 C 10,3 C 82 % 1023,1 hPa 0,0 l/m 8,2 km/h (2 Bft) NW 315 8,9 C 10,7 C 7,7 km/h (2 Bft)
30.10.2020 11:34 11,9 C 11,8 C 10,3 C 82 % 1023,1 hPa 0,0 l/m 8,7 km/h (2 Bft) W 270 8,9 C 10,4 C 27,0 km/h (4 Bft)
30.10.2020 11:32 11,9 C 11,9 C 10,3 C 82 % 1023,1 hPa 0,0 l/m 8,4 km/h (2 Bft) N-NW 337 8,9 C 10,6 C 27,0 km/h (4 Bft)
30.10.2020 11:30 11,9 C 11,9 C 10,3 C 82 % 1023,1 hPa 0,0 l/m 7,2 km/h (2 Bft) W-SW 247 8,9 C 11,4 C 9,8 km/h (2 Bft)
30.10.2020 11:28 11,9 C 11,9 C 10,3 C 82 % 1023,1 hPa 0,0 l/m 6,6 km/h (2 Bft) N-NW 337 8,9 C 11,8 C 12,6 km/h (3 Bft)
30.10.2020 11:26 11,9 C 11,8 C 10,3 C 82 % 1023,1 hPa 0,0 l/m 6,9 km/h (2 Bft) W-SW 247 8,9 C 11,6 C 12,6 km/h (3 Bft)
30.10.2020 11:24 12,0 C 11,8 C 10,3 C 82 % 1023,1 hPa 0,0 l/m 6,6 km/h (2 Bft) N-NO 22 9,0 C 11,9 C 12,6 km/h (3 Bft)
30.10.2020 11:22 12,0 C 11,8 C 10,3 C 82 % 1023,1 hPa 0,0 l/m 7,6 km/h (2 Bft) NW 315 9,0 C 11,2 C 12,6 km/h (3 Bft)
30.10.2020 11:20 12,0 C 11,9 C 10,3 C 82 % 1023,1 hPa 0,0 l/m 7,6 km/h (2 Bft) NW 315 9,0 C 11,2 C 12,6 km/h (3 Bft)
30.10.2020 11:18 12,0 C 11,8 C 10,3 C 82 % 1023,1 hPa 0,0 l/m 10,0 km/h (2 Bft) SW 225 9,0 C 9,8 C 12,0 km/h (2 Bft)
30.10.2020 11:16 12,0 C 11,9 C 10,3 C 82 % 1023,1 hPa 0,0 l/m 11,1 km/h (2 Bft) N-NW 337 9,0 C 9,2 C 12,0 km/h (2 Bft)
30.10.2020 11:14 12,0 C 11,9 C 10,3 C 82 % 1023,1 hPa 0,0 l/m 11,1 km/h (2 Bft) NW 315 9,0 C 9,2 C 13,7 km/h (3 Bft)
30.10.2020 11:12 12,0 C 11,9 C 10,3 C 82 % 1023,1 hPa 0,0 l/m 11,9 km/h (2 Bft) N-NW 337 9,0 C 8,9 C 29,0 km/h (5 Bft)
30.10.2020 11:10 12,0 C 12,0 C 10,2 C 82 % 1023,1 hPa 0,0 l/m 11,7 km/h (2 Bft) N-NW 337 9,0 C 9,0 C 35,9 km/h (5 Bft)
30.10.2020 11:08 11,9 C 12,0 C 10,2 C 82 % 1023,1 hPa 0,0 l/m 10,0 km/h (2 Bft) NW 315 8,9 C 9,7 C 35,9 km/h (5 Bft)
30.10.2020 11:06 11,9 C 11,9 C 10,2 C 82 % 1023,1 hPa 0,0 l/m 8,5 km/h (2 Bft) W-NW 292 8,9 C 10,5 C 20,7 km/h (4 Bft)
30.10.2020 11:04 11,9 C 11,9 C 10,3 C 83 % 1023,1 hPa 0,0 l/m 8,7 km/h (2 Bft) N-NW 337 9,1 C 10,4 C 14,1 km/h (3 Bft)
30.10.2020 11:02 11,8 C 11,9 C 10,2 C 83 % 1023,1 hPa 0,0 l/m 9,2 km/h (2 Bft) N-NW 337 9,0 C 10,0 C 12,6 km/h (3 Bft)
30.10.2020 11:00 11,8 C 11,9 C 10,3 C 83 % 1023,1 hPa 0,0 l/m 9,2 km/h (2 Bft) N-NW 337 9,0 C 10,0 C 12,6 km/h (3 Bft)
30.10.2020 10:58 11,8 C 11,8 C 10,2 C 83 % 1023,1 hPa 0,0 l/m 9,2 km/h (2 Bft) O-NO 67 9,0 C 10,0 C 11,2 km/h (2 Bft)
30.10.2020 10:56 11,8 C 11,8 C 10,3 C 83 % 1023,1 hPa 0,0 l/m 9,2 km/h (2 Bft) W 270 9,0 C 10,0 C 11,2 km/h (2 Bft)
30.10.2020 10:54 11,7 C 11,8 C 10,2 C 83 % 1023,1 hPa 0,0 l/m 8,5 km/h (2 Bft) NW 315 8,9 C 10,3 C 19,9 km/h (4 Bft)
30.10.2020 10:52 11,7 C 11,8 C 10,2 C 83 % 1023,1 hPa 0,0 l/m 8,0 km/h (2 Bft) S-SO 157 8,9 C 10,6 C 19,9 km/h (4 Bft)
30.10.2020 10:50 11,7 C 11,7 C 10,2 C 83 % 1023,1 hPa 0,0 l/m 7,1 km/h (2 Bft) NW 315 8,9 C 11,2 C 8,5 km/h (2 Bft)
30.10.2020 10:48 11,7 C 11,6 C 10,3 C 83 % 1023,1 hPa 0,1 l/m 7,6 km/h (2 Bft) W-NW 292 8,9 C 10,9 C 10,8 km/h (2 Bft)
30.10.2020 10:46 11,7 C 11,7 C 10,3 C 83 % 1023,1 hPa 0,0 l/m 8,0 km/h (2 Bft) N-NW 337 8,9 C 10,6 C 18,3 km/h (3 Bft)
30.10.2020 10:44 11,8 C 11,6 C 10,3 C 82 % 1023,1 hPa 0,0 l/m 8,5 km/h (2 Bft) NW 315 8,8 C 10,4 C 18,3 km/h (3 Bft)
30.10.2020 10:42 11,8 C 11,7 C 10,2 C 82 % 1023,1 hPa 0,0 l/m 9,3 km/h (2 Bft) NW 315 8,8 C 10,0 C 17,2 km/h (3 Bft)
30.10.2020 10:40 11,8 C 11,7 C 10,2 C 82 % 1023,1 hPa 0,0 l/m 9,3 km/h (2 Bft) NW 315 8,8 C 10,0 C 19,7 km/h (3 Bft)
30.10.2020 10:38 11,8 C 11,8 C 10,2 C 82 % 1023,1 hPa 0,0 l/m 10,6 km/h (2 Bft) W-NW 292 8,8 C 9,3 C 19,9 km/h (4 Bft)
30.10.2020 10:36 11,8 C 11,8 C 10,2 C 82 % 1023,1 hPa 0,0 l/m 11,6 km/h (2 Bft) N-NW 337 8,8 C 8,8 C 19,9 km/h (4 Bft)
30.10.2020 10:34 11,8 C 11,8 C 10,2 C 82 % 1023,1 hPa 0,0 l/m 11,3 km/h (2 Bft) N 360 8,8 C 8,9 C 18,2 km/h (3 Bft)
30.10.2020 10:32 11,8 C 11,8 C 10,2 C 83 % 1023,1 hPa 0,0 l/m 10,9 km/h (2 Bft) W 270 9,0 C 9,1 C 20,3 km/h (4 Bft)
30.10.2020 10:30 11,7 C 11,8 C 10,2 C 83 % 1023,1 hPa 0,0 l/m 11,9 km/h (2 Bft) S 180 8,9 C 8,5 C 25,7 km/h (4 Bft)
30.10.2020 10:28 11,7 C 11,9 C 10,2 C 83 % 1023,1 hPa 0,0 l/m 11,3 km/h (2 Bft) W 270 8,9 C 8,8 C 29,9 km/h (5 Bft)
30.10.2020 10:26 11,7 C 11,8 C 10,2 C 83 % 1023,1 hPa 0,0 l/m 9,3 km/h (2 Bft) NW 315 8,9 C 9,9 C 29,9 km/h (5 Bft)
30.10.2020 10:24 11,7 C 11,8 C 10,2 C 83 % 1023,1 hPa 0,0 l/m 9,2 km/h (2 Bft) N-NW 337 8,9 C 9,9 C 16,6 km/h (3 Bft)
30.10.2020 10:22 11,6 C 11,8 C 10,2 C 83 % 1023,1 hPa 0,0 l/m 10,5 km/h (2 Bft) N-NW 337 8,8 C 9,1 C 15,8 km/h (3 Bft)
30.10.2020 10:20 11,6 C 11,7 C 10,2 C 83 % 1022,9 hPa 0,0 l/m 10,5 km/h (2 Bft) N-NW 337 8,8 C 9,1 C 16,6 km/h (3 Bft)
30.10.2020 10:18 11,6 C 11,7 C 10,2 C 83 % 1022,9 hPa 0,0 l/m 9,5 km/h (2 Bft) N-NW 337 8,8 C 9,6 C 16,6 km/h (3 Bft)
30.10.2020 10:16 11,7 C 11,7 C 10,2 C 83 % 1022,9 hPa 0,0 l/m 10,3 km/h (2 Bft) N-NW 337 8,9 C 9,3 C 10,8 km/h (2 Bft)
30.10.2020 10:14 11,7 C 11,7 C 10,2 C 83 % 1022,9 hPa 0,0 l/m 11,4 km/h (2 Bft) NW 315 8,9 C 8,8 C 27,2 km/h (4 Bft)
30.10.2020 10:12 11,6 C 11,8 C 10,2 C 83 % 1022,9 hPa 0,0 l/m 11,9 km/h (2 Bft) W 270 8,8 C 8,4 C 27,2 km/h (4 Bft)
30.10.2020 10:10 11,6 C 11,8 C 10,2 C 83 % 1022,9 hPa 0,0 l/m 11,3 km/h (2 Bft) N-NW 337 8,8 C 8,7 C 13,3 km/h (3 Bft)
30.10.2020 10:08 11,6 C 11,8 C 10,3 C 83 % 1022,9 hPa 0,0 l/m 11,4 km/h (2 Bft) W 270 8,8 C 8,6 C 24,7 km/h (4 Bft)
30.10.2020 10:06 11,6 C 11,8 C 10,2 C 83 % 1022,9 hPa 0,0 l/m 10,9 km/h (2 Bft) NW 315 8,8 C 8,9 C 29,5 km/h (5 Bft)
30.10.2020 10:04 11,6 C 11,7 C 10,2 C 83 % 1022,9 hPa 0,1 l/m 10,1 km/h (2 Bft) N-NW 337 8,8 C 9,3 C 29,5 km/h (5 Bft)
30.10.2020 10:02 11,6 C 11,7 C 10,2 C 83 % 1022,9 hPa 0,0 l/m 10,0 km/h (2 Bft) NW 315 8,8 C 9,4 C 18,2 km/h (3 Bft)
30.10.2020 10:00 11,6 C 11,8 C 10,2 C 83 % 1023,2 hPa 0,0 l/m 10,0 km/h (2 Bft) NW 315 8,8 C 9,4 C 18,2 km/h (3 Bft)
30.10.2020 09:58 11,6 C 11,8 C 10,2 C 83 % 1023,2 hPa 0,0 l/m 9,5 km/h (2 Bft) NW 315 8,8 C 9,6 C 14,7 km/h (3 Bft)
30.10.2020 09:56 11,6 C 11,8 C 10,2 C 83 % 1023,2 hPa 0,0 l/m 10,0 km/h (2 Bft) N-NW 337 8,8 C 9,4 C 9,8 km/h (2 Bft)
30.10.2020 09:54 11,6 C 11,8 C 10,2 C 83 % 1023,2 hPa 0,0 l/m 10,1 km/h (2 Bft) W 270 8,8 C 9,3 C 14,7 km/h (3 Bft)
30.10.2020 09:52 11,5 C 11,8 C 10,2 C 83 % 1023,2 hPa 0,0 l/m 10,5 km/h (2 Bft) N-NO 22 8,7 C 9,0 C 23,2 km/h (4 Bft)
30.10.2020 09:50 11,5 C 11,7 C 10,2 C 83 % 1023,2 hPa 0,0 l/m 10,8 km/h (2 Bft) NW 315 8,7 C 8,8 C 23,2 km/h (4 Bft)
30.10.2020 09:48 11,5 C 11,7 C 10,2 C 83 % 1023,2 hPa 0,0 l/m 12,2 km/h (2 Bft) N-NW 337 8,7 C 8,1 C 19,9 km/h (4 Bft)
30.10.2020 09:46 11,5 C 11,6 C 10,2 C 83 % 1023,2 hPa 0,0 l/m 11,9 km/h (2 Bft) W-SW 247 8,7 C 8,3 C 17,0 km/h (3 Bft)
30.10.2020 09:44 11,4 C 11,6 C 10,2 C 83 % 1023,2 hPa 0,1 l/m 11,9 km/h (2 Bft) SW 225 8,6 C 8,2 C 17,0 km/h (3 Bft)
30.10.2020 09:42 11,4 C 11,6 C 10,2 C 83 % 1023,2 hPa 0,0 l/m 11,1 km/h (2 Bft) W-SW 247 8,6 C 8,6 C 14,3 km/h (3 Bft)
30.10.2020 09:40 11,4 C 11,6 C 10,2 C 83 % 1023,1 hPa 0,0 l/m 11,1 km/h (2 Bft) W-SW 247 8,6 C 8,6 C 25,5 km/h (4 Bft)
30.10.2020 09:38 11,4 C 11,5 C 10,2 C 83 % 1023,1 hPa 0,1 l/m 11,3 km/h (2 Bft) N 360 8,6 C 8,5 C 25,5 km/h (4 Bft)
30.10.2020 09:36 11,4 C 11,6 C 10,2 C 83 % 1023,1 hPa 0,0 l/m 10,3 km/h (2 Bft) N 360 8,6 C 9,0 C 20,7 km/h (4 Bft)
30.10.2020 09:34 11,4 C 11,5 C 10,2 C 83 % 1023,1 hPa 0,0 l/m 9,8 km/h (2 Bft) NW 315 8,6 C 9,3 C 20,7 km/h (4 Bft)
30.10.2020 09:32 11,4 C 11,6 C 10,2 C 83 % 1023,1 hPa 0,0 l/m 10,3 km/h (2 Bft) N-NW 337 8,6 C 9,0 C 19,1 km/h (3 Bft)
30.10.2020 09:30 11,3 C 11,6 C 10,2 C 83 % 1023,1 hPa 0,0 l/m 10,3 km/h (2 Bft) NW 315 8,5 C 8,9 C 19,1 km/h (3 Bft)
30.10.2020 09:28 11,3 C 11,7 C 10,2 C 83 % 1023,1 hPa 0,0 l/m 9,7 km/h (2 Bft) N-NW 337 8,5 C 9,2 C 20,5 km/h (4 Bft)
30.10.2020 09:26 11,3 C 11,6 C 10,2 C 83 % 1023,1 hPa 0,1 l/m 8,9 km/h (2 Bft) NW 315 8,5 C 9,7 C 20,5 km/h (4 Bft)
30.10.2020 09:24 11,3 C 11,7 C 10,2 C 83 % 1023,1 hPa 0,0 l/m 9,5 km/h (2 Bft) S 180 8,5 C 9,3 C 29,0 km/h (5 Bft)
30.10.2020 09:22 11,3 C 11,6 C 10,2 C 83 % 1023,1 hPa 0,0 l/m 9,8 km/h (2 Bft) N 360 8,5 C 9,1 C 29,0 km/h (5 Bft)
30.10.2020 09:20 11,3 C 11,6 C 10,2 C 83 % 1023,1 hPa 0,0 l/m 9,8 km/h (2 Bft) N 360 8,5 C 9,1 C 29,0 km/h (5 Bft)
30.10.2020 09:18 11,2 C 11,6 C 10,2 C 83 % 1023,1 hPa 0,1 l/m 9,8 km/h (2 Bft) W-SW 247 8,4 C 9,0 C 31,9 km/h (5 Bft)
30.10.2020 09:16 11,2 C 11,7 C 10,2 C 83 % 1023,1 hPa 0,0 l/m 11,3 km/h (2 Bft) NW 315 8,4 C 8,2 C 31,9 km/h (5 Bft)
30.10.2020 09:14 11,3 C 11,6 C 10,1 C 83 % 1023,1 hPa 0,0 l/m 10,5 km/h (2 Bft) NW 315 8,5 C 8,8 C 26,7 km/h (4 Bft)
30.10.2020 09:12 11,1 C 11,5 C 10,2 C 83 % 1023,1 hPa 0,0 l/m 10,9 km/h (2 Bft) W-NW 292 8,3 C 8,3 C 41,3 km/h (6 Bft)
30.10.2020 09:10 11,1 C 11,4 C 10,1 C 83 % 1023,1 hPa 0,0 l/m 10,8 km/h (2 Bft) N-NW 337 8,3 C 8,4 C 20,1 km/h (4 Bft)
30.10.2020 09:08 11,0 C 11,3 C 10,1 C 84 % 1023,1 hPa 0,0 l/m 10,1 km/h (2 Bft) NW 315 8,4 C 8,6 C 26,1 km/h (4 Bft)
30.10.2020 09:06 11,0 C 11,3 C 10,1 C 84 % 1023,1 hPa 0,0 l/m 10,3 km/h (2 Bft) W-NW 292 8,4 C 8,5 C 26,1 km/h (4 Bft)
30.10.2020 09:04 10,9 C 11,3 C 10,1 C 84 % 1023,1 hPa 0,1 l/m 10,0 km/h (2 Bft) SW 225 8,3 C 8,6 C 12,7 km/h (3 Bft)
30.10.2020 09:02 10,9 C 11,3 C 10,1 C 84 % 1023,1 hPa 0,0 l/m 9,7 km/h (2 Bft) NW 315 8,3 C 8,8 C 31,3 km/h (5 Bft)
30.10.2020 09:00 10,9 C 11,2 C 10,1 C 84 % 1023,0 hPa 0,0 l/m 9,7 km/h (2 Bft) NW 315 8,3 C 8,8 C 12,7 km/h (3 Bft)
30.10.2020 08:58 10,8 C 11,3 C 10,1 C 84 % 1023,0 hPa 0,0 l/m 9,7 km/h (2 Bft) W 270 8,2 C 8,6 C 31,3 km/h (5 Bft)
30.10.2020 08:56 10,8 C 11,3 C 10,1 C 84 % 1023,0 hPa 0,0 l/m 9,2 km/h (2 Bft) N-NW 337 8,2 C 8,9 C 31,3 km/h (5 Bft)
30.10.2020 08:54 10,7 C 11,3 C 10,1 C 84 % 1023,0 hPa 0,1 l/m 8,4 km/h (2 Bft) SO 135 8,1 C 9,3 C 17,2 km/h (3 Bft)
30.10.2020 08:52 10,5 C 11,2 C 10,1 C 85 % 1023,0 hPa 0,0 l/m 7,7 km/h (2 Bft) N-NW 337 8,1 C 9,6 C 17,2 km/h (3 Bft)
30.10.2020 08:50 10,5 C 11,1 C 10,1 C 85 % 1023,0 hPa 0,0 l/m 8,0 km/h (2 Bft) S-SO 157 8,1 C 9,4 C 12,9 km/h (3 Bft)
30.10.2020 08:48 10,4 C 11,1 C 10,1 C 85 % 1023,0 hPa 0,0 l/m 7,6 km/h (2 Bft) N-NW 337 8,0 C 9,5 C 16,0 km/h (3 Bft)
30.10.2020 08:46 10,3 C 10,9 C 10,1 C 85 % 1023,0 hPa 0,0 l/m 7,4 km/h (2 Bft) W-NW 292 7,9 C 9,6 C 18,7 km/h (3 Bft)
30.10.2020 08:44 10,2 C 10,9 C 10,1 C 85 % 1023,0 hPa 0,0 l/m 7,2 km/h (2 Bft) N-NW 337 7,8 C 9,6 C 18,7 km/h (3 Bft)
30.10.2020 08:42 9,9 C 10,8 C 10,2 C 85 % 1023,0 hPa 0,0 l/m 5,8 km/h (2 Bft) W-SW 247 7,5 C 9,9 C 22,2 km/h (4 Bft)
30.10.2020 08:40 9,9 C 10,7 C 10,2 C 85 % 1022,6 hPa 0,1 l/m 5,8 km/h (2 Bft) W-SW 247 7,5 C 9,9 C 10,2 km/h (2 Bft)
30.10.2020 08:38 10,0 C 10,6 C 10,2 C 85 % 1022,6 hPa 0,0 l/m 5,3 km/h (1 Bft) W 270 7,6 C 10,0 C 10,2 km/h (2 Bft)
30.10.2020 08:36 9,8 C 10,5 C 10,2 C 85 % 1022,6 hPa 0,0 l/m 5,0 km/h (1 Bft) NW 315 7,4 C 9,8 C 9,5 km/h (2 Bft)
30.10.2020 08:34 9,6 C 10,4 C 10,2 C 85 % 1022,6 hPa 0,0 l/m 4,8 km/h (1 Bft) W-NW 292 7,2 C 9,6 C 10,2 km/h (2 Bft)
30.10.2020 08:32 9,6 C 10,3 C 10,2 C 85 % 1022,6 hPa 0,0 l/m 4,7 km/h (1 Bft) W-SW 247 7,2 C 9,6 C 10,2 km/h (2 Bft)
30.10.2020 08:30 9,5 C 10,3 C 10,2 C 85 % 1022,6 hPa 0,0 l/m 4,7 km/h (1 Bft) SW 225 7,1 C 9,5 C 11,0 km/h (2 Bft)
30.10.2020 08:28 9,4 C 10,2 C 10,2 C 85 % 1022,6 hPa 0,1 l/m 4,8 km/h (1 Bft) W-SW 247 7,0 C 9,4 C 11,0 km/h (2 Bft)
30.10.2020 08:26 9,4 C 10,1 C 10,2 C 85 % 1022,6 hPa 0,0 l/m 4,5 km/h (1 Bft) W-SW 247 7,0 C 9,4 C 7,5 km/h (2 Bft)
30.10.2020 08:24 9,3 C 10,1 C 10,2 C 85 % 1022,6 hPa 0,0 l/m 4,7 km/h (1 Bft) W-NW 292 6,9 C 9,3 C 7,5 km/h (2 Bft)
30.10.2020 08:22 9,3 C 10,1 C 10,2 C 85 % 1022,6 hPa 0,0 l/m 3,7 km/h (1 Bft) W 270 6,9 C 9,3 C 6,8 km/h (2 Bft)
30.10.2020 08:20 9,3 C 10,1 C 10,2 C 85 % 1022,8 hPa 0,0 l/m 3,7 km/h (1 Bft) W 270 6,9 C 9,3 C 8,3 km/h (2 Bft)
30.10.2020 08:18 9,2 C 10,0 C 10,2 C 85 % 1022,8 hPa 0,0 l/m 3,5 km/h (1 Bft) W 270 6,8 C 9,2 C 8,3 km/h (2 Bft)
30.10.2020 08:16 9,2 C 10,0 C 10,2 C 85 % 1022,8 hPa 0,0 l/m 2,9 km/h (1 Bft) W-NW 292 6,8 C 9,2 C 6,2 km/h (2 Bft)
30.10.2020 08:14 9,2 C 9,9 C 10,2 C 85 % 1022,8 hPa 0,1 l/m 2,9 km/h (1 Bft) W-SW 247 6,8 C 9,2 C 7,3 km/h (2 Bft)
30.10.2020 08:12 9,2 C 9,9 C 10,2 C 85 % 1022,8 hPa 0,0 l/m 2,7 km/h (1 Bft) W 270 6,8 C 9,2 C 7,3 km/h (2 Bft)
30.10.2020 08:10 9,1 C 9,9 C 10,2 C 85 % 1022,8 hPa 0,0 l/m 2,7 km/h (1 Bft) W-SW 247 6,7 C 9,1 C 6,0 km/h (2 Bft)
30.10.2020 08:08 9,1 C 9,8 C 10,2 C 85 % 1022,8 hPa 0,1 l/m 3,2 km/h (1 Bft) W 270 6,7 C 9,1 C 6,0 km/h (2 Bft)
30.10.2020 08:06 9,1 C 9,9 C 10,2 C 85 % 1022,8 hPa 0,0 l/m 3,4 km/h (1 Bft) W-NW 292 6,7 C 9,1 C 4,6 km/h (1 Bft)
30.10.2020 08:04 9,1 C 9,8 C 10,2 C 85 % 1022,8 hPa 0,1 l/m 3,4 km/h (1 Bft) S-SW 202 6,7 C 9,1 C 4,6 km/h (1 Bft)
30.10.2020 08:02 9,0 C 9,8 C 10,2 C 84 % 1022,8 hPa 0,0 l/m 3,4 km/h (1 Bft) W-SW 247 6,4 C 9,0 C 2,9 km/h (1 Bft)
30.10.2020 08:00 9,0 C 9,8 C 10,2 C 84 % 1022,7 hPa 0,0 l/m 3,4 km/h (1 Bft) W-SW 247 6,4 C 9,0 C 8,5 km/h (2 Bft)
30.10.2020 07:58 9,0 C 9,7 C 10,2 C 84 % 1022,7 hPa 0,0 l/m 3,1 km/h (1 Bft) NW 315 6,4 C 9,0 C 10,4 km/h (2 Bft)
30.10.2020 07:56 8,9 C 9,7 C 10,2 C 84 % 1022,7 hPa 0,0 l/m 2,7 km/h (1 Bft) W-SW 247 6,3 C 8,9 C 10,4 km/h (2 Bft)
30.10.2020 07:54 8,9 C 9,7 C 10,2 C 84 % 1022,7 hPa 0,0 l/m 2,6 km/h (1 Bft) W 270 6,3 C 8,9 C 7,3 km/h (2 Bft)
30.10.2020 07:52 8,9 C 9,6 C 10,2 C 84 % 1022,7 hPa 0,0 l/m 2,7 km/h (1 Bft) N-NW 337 6,3 C 8,9 C 8,5 km/h (2 Bft)
30.10.2020 07:50 8,8 C 9,6 C 10,2 C 84 % 1022,7 hPa 0,0 l/m 2,6 km/h (1 Bft) W-NW 292 6,2 C 8,8 C 8,5 km/h (2 Bft)
30.10.2020 07:48 8,8 C 9,5 C 10,2 C 84 % 1022,7 hPa 0,0 l/m 1,6 km/h (1 Bft) SW 225 6,2 C 8,8 C 7,7 km/h (2 Bft)
30.10.2020 07:46 8,8 C 9,5 C 10,2 C 84 % 1022,7 hPa 0,0 l/m 2,1 km/h (1 Bft) W 270 6,2 C 8,8 C 7,7 km/h (2 Bft)
30.10.2020 07:44 8,8 C 9,5 C 10,2 C 84 % 1022,7 hPa 0,1 l/m 1,8 km/h (1 Bft) NW 315 6,2 C 8,8 C 4,6 km/h (1 Bft)
30.10.2020 07:42 8,8 C 9,4 C 10,1 C 84 % 1022,7 hPa 0,0 l/m 2,1 km/h (1 Bft) N 360 6,2 C 8,8 C 0,0 km/h (0 Bft)
30.10.2020 07:40 8,8 C 9,4 C 10,1 C 84 % 1022,8 hPa 0,0 l/m 2,1 km/h (1 Bft) N 360 6,2 C 8,8 C 0,0 km/h (0 Bft)
30.10.2020 07:38 8,8 C 9,4 C 10,1 C 84 % 1022,8 hPa 0,0 l/m 2,4 km/h (1 Bft) SW 225 6,2 C 8,8 C 4,4 km/h (1 Bft)
30.10.2020 07:36 8,8 C 9,4 C 10,1 C 84 % 1022,8 hPa 0,0 l/m 2,7 km/h (1 Bft) NW 315 6,2 C 8,8 C 4,4 km/h (1 Bft)
30.10.2020 07:34 8,8 C 9,4 C 10,1 C 84 % 1022,8 hPa 0,0 l/m 2,6 km/h (1 Bft) N 360 6,2 C 8,8 C 8,1 km/h (2 Bft)
30.10.2020 07:32 8,8 C 9,3 C 10,1 C 84 % 1022,8 hPa 0,0 l/m 2,1 km/h (1 Bft) W-NW 292 6,2 C 8,8 C 8,1 km/h (2 Bft)
30.10.2020 07:30 8,8 C 9,4 C 10,1 C 84 % 1022,8 hPa 0,1 l/m 1,4 km/h (1 Bft) N-NW 337 6,2 C 8,8 C 6,2 km/h (2 Bft)
30.10.2020 07:28 8,8 C 9,4 C 10,1 C 84 % 1022,8 hPa 0,0 l/m 1,1 km/h (1 Bft) N 360 6,2 C 8,8 C 5,8 km/h (2 Bft)
30.10.2020 07:26 8,8 C 9,4 C 10,1 C 84 % 1022,8 hPa 0,0 l/m 1,0 km/h (0 Bft) W-SW 247 6,2 C 8,8 C 5,8 km/h (2 Bft)
30.10.2020 07:24 8,7 C 9,4 C 10,1 C 84 % 1022,8 hPa 0,0 l/m 0,6 km/h (0 Bft) N-NW 337 6,2 C 8,7 C 2,9 km/h (1 Bft)
30.10.2020 07:22 8,7 C 9,4 C 10,1 C 84 % 1022,8 hPa 0,0 l/m 1,1 km/h (1 Bft) W-NW 292 6,2 C 8,7 C 2,9 km/h (1 Bft)
30.10.2020 07:20 8,7 C 9,2 C 10,1 C 84 % 1022,8 hPa 0,0 l/m 1,1 km/h (1 Bft) W-NW 292 6,2 C 8,7 C 2,9 km/h (1 Bft)
30.10.2020 07:18 8,7 C 9,3 C 10,1 C 84 % 1022,8 hPa 0,0 l/m 1,3 km/h (1 Bft) W 270 6,2 C 8,7 C 5,6 km/h (1 Bft)
30.10.2020 07:16 8,7 C 9,2 C 10,1 C 84 % 1022,8 hPa 0,0 l/m 1,1 km/h (1 Bft) N-NO 22 6,2 C 8,7 C 5,6 km/h (1 Bft)
30.10.2020 07:14 8,7 C 9,3 C 10,1 C 84 % 1022,8 hPa 0,0 l/m 0,8 km/h (0 Bft) N-NW 337 6,2 C 8,7 C 2,5 km/h (1 Bft)
30.10.2020 07:12 8,7 C 9,2 C 10,1 C 84 % 1022,8 hPa 0,0 l/m 1,3 km/h (1 Bft) W 270 6,2 C 8,7 C 4,8 km/h (1 Bft)
30.10.2020 07:10 8,7 C 9,1 C 10,1 C 84 % 1022,8 hPa 0,0 l/m 1,4 km/h (1 Bft) W 270 6,2 C 8,7 C 4,8 km/h (1 Bft)
30.10.2020 07:08 8,7 C 9,1 C 10,1 C 84 % 1022,8 hPa 0,0 l/m 1,3 km/h (1 Bft) SW 225 6,2 C 8,7 C 0,0 km/h (0 Bft)
30.10.2020 07:06 8,7 C 9,1 C 10,1 C 84 % 1022,8 hPa 0,0 l/m 1,3 km/h (1 Bft) N-NW 337 6,2 C 8,7 C 0,0 km/h (0 Bft)
30.10.2020 07:04 8,8 C 9,1 C 10,1 C 84 % 1022,8 hPa 0,0 l/m 1,3 km/h (1 Bft) W 270 6,2 C 8,8 C 4,4 km/h (1 Bft)
30.10.2020 07:02 8,8 C 9,1 C 10,1 C 84 % 1022,8 hPa 0,0 l/m 1,6 km/h (1 Bft) N-NW 337 6,2 C 8,8 C 4,4 km/h (1 Bft)
30.10.2020 07:00 8,8 C 9,1 C 10,1 C 84 % 1022,8 hPa 0,0 l/m 1,6 km/h (1 Bft) N-NW 337 6,2 C 8,8 C 4,4 km/h (1 Bft)
30.10.2020 06:58 8,8 C 9,1 C 10,1 C 84 % 1022,8 hPa 0,0 l/m 1,9 km/h (1 Bft) N-NW 337 6,2 C 8,8 C 0,0 km/h (0 Bft)
30.10.2020 06:56 8,8 C 9,1 C 10,1 C 83 % 1022,8 hPa 0,0 l/m 2,4 km/h (1 Bft) W-NW 292 6,1 C 8,8 C 0,0 km/h (0 Bft)
30.10.2020 06:54 8,8 C 9,3 C 10,1 C 83 % 1022,8 hPa 0,1 l/m 3,2 km/h (1 Bft) N 360 6,1 C 8,8 C 4,2 km/h (1 Bft)
30.10.2020 06:52 8,8 C 9,3 C 10,1 C 83 % 1022,8 hPa 0,0 l/m 3,2 km/h (1 Bft) NW 315 6,1 C 8,8 C 4,2 km/h (1 Bft)
30.10.2020 06:50 8,8 C 9,1 C 10,1 C 83 % 1022,8 hPa 0,0 l/m 3,1 km/h (1 Bft) O-SO 112 6,1 C 8,8 C 5,6 km/h (1 Bft)
30.10.2020 06:48 8,8 C 9,1 C 10,1 C 83 % 1022,8 hPa 0,0 l/m 3,1 km/h (1 Bft) NW 315 6,1 C 8,8 C 7,7 km/h (2 Bft)
30.10.2020 06:46 8,8 C 9,1 C 10,1 C 83 % 1022,8 hPa 0,0 l/m 2,7 km/h (1 Bft) N 360 6,1 C 8,8 C 7,7 km/h (2 Bft)
30.10.2020 06:44 8,8 C 9,1 C 10,1 C 83 % 1022,8 hPa 0,0 l/m 2,3 km/h (1 Bft) N-NW 337 6,1 C 8,8 C 5,4 km/h (1 Bft)
30.10.2020 06:42 8,8 C 9,1 C 10,1 C 83 % 1022,8 hPa 0,0 l/m 2,6 km/h (1 Bft) NO 45 6,1 C 8,8 C 3,1 km/h (1 Bft)
30.10.2020 06:40 8,8 C 9,3 C 10,1 C 83 % 1022,9 hPa 0,0 l/m 2,6 km/h (1 Bft) NO 45 6,1 C 8,8 C 5,2 km/h (1 Bft)
30.10.2020 06:38 8,8 C 9,2 C 10,0 C 83 % 1022,9 hPa 0,0 l/m 2,7 km/h (1 Bft) NW 315 6,1 C 8,8 C 5,2 km/h (1 Bft)
30.10.2020 06:36 8,8 C 9,1 C 10,1 C 83 % 1022,9 hPa 0,0 l/m 3,1 km/h (1 Bft) W 270 6,1 C 8,8 C 4,6 km/h (1 Bft)
30.10.2020 06:34 8,8 C 9,1 C 10,0 C 83 % 1022,9 hPa 0,0 l/m 3,4 km/h (1 Bft) NW 315 6,1 C 8,8 C 4,6 km/h (1 Bft)
30.10.2020 06:32 8,8 C 9,1 C 10,1 C 83 % 1022,9 hPa 0,0 l/m 3,7 km/h (1 Bft) N-NW 337 6,1 C 8,8 C 8,1 km/h (2 Bft)
30.10.2020 06:30 8,8 C 9,1 C 10,1 C 83 % 1022,9 hPa 0,0 l/m 3,7 km/h (1 Bft) N-NW 337 6,1 C 8,8 C 8,9 km/h (2 Bft)
30.10.2020 06:28 8,8 C 9,3 C 10,0 C 83 % 1022,9 hPa 0,0 l/m 3,4 km/h (1 Bft) W-NW 292 6,1 C 8,8 C 8,9 km/h (2 Bft)
30.10.2020 06:26 8,7 C 9,1 C 10,0 C 83 % 1022,9 hPa 0,0 l/m 2,9 km/h (1 Bft) NW 315 6,0 C 8,7 C 8,1 km/h (2 Bft)
30.10.2020 06:24 8,7 C 9,3 C 10,0 C 83 % 1022,9 hPa 0,0 l/m 2,7 km/h (1 Bft) W-SW 247 6,0 C 8,7 C 6,2 km/h (2 Bft)
30.10.2020 06:22 8,6 C 9,3 C 10,0 C 83 % 1022,9 hPa 0,0 l/m 2,3 km/h (1 Bft) NW 315 5,9 C 8,6 C 6,2 km/h (2 Bft)
30.10.2020 06:20 8,6 C 9,0 C 10,0 C 83 % 1022,8 hPa 0,0 l/m 2,3 km/h (1 Bft) NW 315 5,9 C 8,6 C 6,2 km/h (2 Bft)
30.10.2020 06:18 8,6 C 9,0 C 10,0 C 83 % 1022,8 hPa 0,0 l/m 2,1 km/h (1 Bft) W-SW 247 5,9 C 8,6 C 4,4 km/h (1 Bft)
30.10.2020 06:16 8,6 C 9,1 C 10,0 C 83 % 1022,8 hPa 0,0 l/m 2,1 km/h (1 Bft) N 360 5,9 C 8,6 C 3,7 km/h (1 Bft)
30.10.2020 06:14 8,5 C 8,9 C 10,0 C 83 % 1022,8 hPa 0,0 l/m 2,1 km/h (1 Bft) W 270 5,8 C 8,5 C 3,7 km/h (1 Bft)
30.10.2020 06:12 8,5 C 9,0 C 10,0 C 83 % 1022,8 hPa 0,0 l/m 2,1 km/h (1 Bft) NO 45 5,8 C 8,5 C 3,5 km/h (1 Bft)
30.10.2020 06:10 8,5 C 8,9 C 10,0 C 83 % 1022,8 hPa 0,0 l/m 1,8 km/h (1 Bft) SW 225 5,8 C 8,5 C 3,5 km/h (1 Bft)
30.10.2020 06:08 8,5 C 8,9 C 10,0 C 83 % 1022,8 hPa 0,0 l/m 1,9 km/h (1 Bft) W-SW 247 5,8 C 8,5 C 4,8 km/h (1 Bft)
30.10.2020 06:06 8,5 C 8,9 C 10,0 C 83 % 1022,8 hPa 0,0 l/m 2,1 km/h (1 Bft) W 270 5,8 C 8,5 C 4,8 km/h (1 Bft)
30.10.2020 06:04 8,5 C 8,8 C 10,0 C 83 % 1022,8 hPa 0,0 l/m 1,4 km/h (1 Bft) NW 315 5,8 C 8,5 C 3,3 km/h (1 Bft)
30.10.2020 06:02 8,5 C 8,8 C 10,0 C 83 % 1022,8 hPa 0,0 l/m 1,8 km/h (1 Bft) SW 225 5,8 C 8,5 C 2,9 km/h (1 Bft)
30.10.2020 05:59 8,5 C 8,8 C 10,0 C 83 % 1023,0 hPa 0,1 l/m 1,8 km/h (1 Bft) SW 225 5,8 C 8,5 C 2,9 km/h (1 Bft)
30.10.2020 05:58 8,5 C 8,8 C 10,1 C 83 % 1023,0 hPa 0,0 l/m 1,8 km/h (1 Bft) NW 315 5,8 C 8,5 C 3,7 km/h (1 Bft)
30.10.2020 05:56 8,5 C 8,8 C 10,1 C 83 % 1023,0 hPa 0,0 l/m 1,6 km/h (1 Bft) N 360 5,8 C 8,5 C 0,0 km/h (0 Bft)
30.10.2020 05:54 8,5 C 8,8 C 10,1 C 83 % 1023,0 hPa 0,0 l/m 1,8 km/h (1 Bft) W 270 5,8 C 8,5 C 4,4 km/h (1 Bft)
30.10.2020 05:52 8,5 C 8,8 C 10,1 C 83 % 1023,0 hPa 0,0 l/m 2,3 km/h (1 Bft) N 360 5,8 C 8,5 C 4,4 km/h (1 Bft)
30.10.2020 05:50 8,5 C 8,8 C 10,0 C 83 % 1023,0 hPa 0,0 l/m 2,1 km/h (1 Bft) SW 225 5,8 C 8,5 C 3,1 km/h (1 Bft)
30.10.2020 05:48 8,5 C 8,8 C 10,0 C 83 % 1023,0 hPa 0,0 l/m 1,9 km/h (1 Bft) NW 315 5,8 C 8,5 C 2,9 km/h (1 Bft)
30.10.2020 05:46 8,5 C 8,8 C 10,1 C 83 % 1023,0 hPa 0,0 l/m 1,6 km/h (1 Bft) W-SW 247 5,8 C 8,5 C 4,6 km/h (1 Bft)
30.10.2020 05:44 8,5 C 8,8 C 10,1 C 83 % 1023,0 hPa 0,0 l/m 1,9 km/h (1 Bft) O-SO 112 5,8 C 8,5 C 4,6 km/h (1 Bft)
30.10.2020 05:42 8,5 C 8,8 C 10,0 C 83 % 1023,0 hPa 0,0 l/m 1,9 km/h (1 Bft) N-NW 337 5,8 C 8,5 C 4,1 km/h (1 Bft)
30.10.2020 05:40 8,5 C 8,8 C 10,0 C 83 % 1022,8 hPa 0,0 l/m 1,9 km/h (1 Bft) N-NW 337 5,8 C 8,5 C 4,1 km/h (1 Bft)
30.10.2020 05:38 8,5 C 8,8 C 10,0 C 83 % 1022,8 hPa 0,0 l/m 2,3 km/h (1 Bft) SW 225 5,8 C 8,5 C 2,9 km/h (1 Bft)
30.10.2020 05:36 8,5 C 8,7 C 10,0 C 83 % 1022,8 hPa 0,0 l/m 2,7 km/h (1 Bft) N 360 5,8 C 8,5 C 4,8 km/h (1 Bft)
30.10.2020 05:34 8,6 C 8,7 C 10,0 C 83 % 1022,8 hPa 0,0 l/m 2,6 km/h (1 Bft) NW 315 5,9 C 8,6 C 4,8 km/h (1 Bft)
30.10.2020 05:32 8,5 C 8,8 C 10,0 C 83 % 1022,8 hPa 0,0 l/m 2,7 km/h (1 Bft) NW 315 5,8 C 8,5 C 2,9 km/h (1 Bft)
30.10.2020 05:30 8,5 C 8,7 C 10,0 C 83 % 1022,8 hPa 0,0 l/m 2,7 km/h (1 Bft) N 360 5,8 C 8,5 C 5,8 km/h (2 Bft)
30.10.2020 05:28 8,5 C 8,6 C 10,0 C 83 % 1022,8 hPa 0,0 l/m 2,3 km/h (1 Bft) SW 225 5,8 C 8,5 C 5,8 km/h (2 Bft)
30.10.2020 05:26 8,5 C 8,6 C 10,0 C 83 % 1022,8 hPa 0,1 l/m 1,9 km/h (1 Bft) N-NW 337 5,8 C 8,5 C 3,7 km/h (1 Bft)
30.10.2020 05:24 8,6 C 8,6 C 10,0 C 83 % 1022,8 hPa 0,0 l/m 2,1 km/h (1 Bft) NW 315 5,9 C 8,6 C 3,3 km/h (1 Bft)
30.10.2020 05:22 8,6 C 8,5 C 10,0 C 83 % 1022,8 hPa 0,0 l/m 2,6 km/h (1 Bft) N-NW 337 5,9 C 8,6 C 3,3 km/h (1 Bft)
30.10.2020 05:20 8,6 C 8,5 C 10,0 C 83 % 1023,0 hPa 0,0 l/m 2,6 km/h (1 Bft) N-NW 337 5,9 C 8,6 C 3,3 km/h (1 Bft)
30.10.2020 05:18 8,6 C 8,5 C 10,0 C 83 % 1023,0 hPa 0,0 l/m 2,9 km/h (1 Bft) W-NW 292 5,9 C 8,6 C 4,4 km/h (1 Bft)
30.10.2020 05:16 8,6 C 8,5 C 10,0 C 83 % 1023,0 hPa 0,0 l/m 3,4 km/h (1 Bft) NO 45 5,9 C 8,6 C 5,2 km/h (1 Bft)
30.10.2020 05:14 8,6 C 8,6 C 10,0 C 83 % 1023,0 hPa 0,0 l/m 3,5 km/h (1 Bft) N-NW 337 5,9 C 8,6 C 7,3 km/h (2 Bft)
30.10.2020 05:12 8,6 C 8,5 C 10,0 C 83 % 1023,0 hPa 0,0 l/m 3,4 km/h (1 Bft) N-NW 337 5,9 C 8,6 C 7,3 km/h (2 Bft)
30.10.2020 05:10 8,6 C 8,5 C 10,0 C 83 % 1023,0 hPa 0,0 l/m 3,5 km/h (1 Bft) SO 135 5,9 C 8,6 C 5,0 km/h (1 Bft)
30.10.2020 05:08 8,5 C 8,5 C 10,0 C 83 % 1023,0 hPa 0,0 l/m 3,5 km/h (1 Bft) S-SW 202 5,8 C 8,5 C 5,0 km/h (1 Bft)
30.10.2020 05:06 8,6 C 8,5 C 10,0 C 83 % 1023,0 hPa 0,0 l/m 3,5 km/h (1 Bft) NW 315 5,9 C 8,6 C 5,0 km/h (1 Bft)
30.10.2020 05:04 8,6 C 8,5 C 10,0 C 84 % 1023,0 hPa 0,0 l/m 3,2 km/h (1 Bft) W-SW 247 6,1 C 8,6 C 6,4 km/h (2 Bft)
30.10.2020 05:02 8,5 C 8,5 C 10,0 C 84 % 1023,0 hPa 0,0 l/m 3,1 km/h (1 Bft) S-SW 202 6,0 C 8,5 C 6,4 km/h (2 Bft)
30.10.2020 05:00 8,5 C 8,5 C 10,0 C 84 % 1022,6 hPa 0,0 l/m 3,1 km/h (1 Bft) S-SW 202 6,0 C 8,5 C 6,4 km/h (2 Bft)
30.10.2020 04:58 8,5 C 8,5 C 10,0 C 84 % 1022,6 hPa 0,0 l/m 3,5 km/h (1 Bft) S-SW 202 6,0 C 8,5 C 6,0 km/h (2 Bft)
30.10.2020 04:56 8,5 C 8,5 C 10,0 C 84 % 1022,6 hPa 0,0 l/m 3,5 km/h (1 Bft) W-NW 292 6,0 C 8,5 C 4,4 km/h (1 Bft)
30.10.2020 04:54 8,5 C 8,5 C 10,0 C 84 % 1022,6 hPa 0,0 l/m 3,7 km/h (1 Bft) O-NO 67 6,0 C 8,5 C 7,0 km/h (2 Bft)
30.10.2020 04:52 8,5 C 8,5 C 10,0 C 84 % 1022,6 hPa 0,0 l/m 3,2 km/h (1 Bft) SW 225 6,0 C 8,5 C 13,3 km/h (3 Bft)
30.10.2020 04:50 8,5 C 8,5 C 10,0 C 84 % 1022,6 hPa 0,0 l/m 3,7 km/h (1 Bft) N-NW 337 6,0 C 8,5 C 9,1 km/h (2 Bft)
30.10.2020 04:48 8,5 C 8,5 C 10,0 C 84 % 1022,6 hPa 0,0 l/m 3,7 km/h (1 Bft) W-NW 292 6,0 C 8,5 C 6,4 km/h (2 Bft)
30.10.2020 04:46 8,5 C 8,5 C 10,0 C 84 % 1022,6 hPa 0,0 l/m 3,4 km/h (1 Bft) NW 315 6,0 C 8,5 C 5,8 km/h (2 Bft)
30.10.2020 04:44 8,5 C 8,5 C 10,0 C 84 % 1022,6 hPa 0,0 l/m 3,7 km/h (1 Bft) W 270 6,0 C 8,5 C 7,0 km/h (2 Bft)
30.10.2020 04:42 8,5 C 8,5 C 10,0 C 84 % 1022,6 hPa 0,0 l/m 4,3 km/h (1 Bft) N-NW 337 6,0 C 8,5 C 12,7 km/h (3 Bft)
30.10.2020 04:40 8,5 C 8,5 C 10,0 C 84 % 1022,7 hPa 0,0 l/m 4,3 km/h (1 Bft) N-NW 337 6,0 C 8,5 C 7,0 km/h (2 Bft)
30.10.2020 04:38 8,4 C 8,5 C 10,0 C 84 % 1022,7 hPa 0,0 l/m 4,5 km/h (1 Bft) N-NW 337 5,9 C 8,4 C 7,9 km/h (2 Bft)
30.10.2020 04:36 8,4 C 8,5 C 10,0 C 84 % 1022,7 hPa 0,0 l/m 4,3 km/h (1 Bft) N 360 5,9 C 8,4 C 7,9 km/h (2 Bft)
30.10.2020 04:34 8,4 C 8,5 C 10,0 C 84 % 1022,7 hPa 0,0 l/m 4,0 km/h (1 Bft) S-SW 202 5,9 C 8,4 C 12,7 km/h (3 Bft)
30.10.2020 04:32 8,3 C 8,5 C 10,0 C 84 % 1022,7 hPa 0,0 l/m 4,7 km/h (1 Bft) W-NW 292 5,8 C 8,3 C 12,7 km/h (3 Bft)
30.10.2020 04:30 8,3 C 8,5 C 10,0 C 84 % 1022,7 hPa 0,0 l/m 4,2 km/h (1 Bft) W 270 5,8 C 8,3 C 9,1 km/h (2 Bft)
30.10.2020 04:28 8,3 C 8,5 C 10,0 C 84 % 1022,7 hPa 0,0 l/m 3,5 km/h (1 Bft) W 270 5,8 C 8,3 C 7,0 km/h (2 Bft)
30.10.2020 04:26 8,2 C 8,5 C 10,0 C 85 % 1022,7 hPa 0,0 l/m 3,1 km/h (1 Bft) W 270 5,8 C 8,2 C 6,2 km/h (2 Bft)
30.10.2020 04:24 8,1 C 8,5 C 10,0 C 85 % 1022,7 hPa 0,0 l/m 2,9 km/h (1 Bft) W-SW 247 5,7 C 8,1 C 6,2 km/h (2 Bft)
30.10.2020 04:22 8,1 C 8,5 C 10,0 C 85 % 1022,7 hPa 0,0 l/m 2,1 km/h (1 Bft) N-NW 337 5,7 C 8,1 C 5,0 km/h (1 Bft)
30.10.2020 04:20 8,1 C 8,4 C 10,0 C 85 % 1022,4 hPa 0,0 l/m 2,1 km/h (1 Bft) N-NW 337 5,7 C 8,1 C 5,0 km/h (1 Bft)
30.10.2020 04:18 8,1 C 8,4 C 10,0 C 85 % 1022,4 hPa 0,0 l/m 2,4 km/h (1 Bft) O-NO 67 5,7 C 8,1 C 1,9 km/h (1 Bft)
30.10.2020 04:16 8,1 C 8,4 C 10,1 C 85 % 1022,4 hPa 0,0 l/m 3,2 km/h (1 Bft) W-SW 247 5,7 C 8,1 C 5,4 km/h (1 Bft)
30.10.2020 04:14 8,1 C 8,4 C 10,1 C 85 % 1022,4 hPa 0,0 l/m 3,4 km/h (1 Bft) N-NW 337 5,7 C 8,1 C 5,4 km/h (1 Bft)
30.10.2020 04:12 7,9 C 8,4 C 10,1 C 85 % 1022,4 hPa 0,0 l/m 3,4 km/h (1 Bft) O-NO 67 5,5 C 7,9 C 10,4 km/h (2 Bft)
30.10.2020 04:10 7,9 C 8,4 C 10,0 C 85 % 1022,4 hPa 0,0 l/m 2,9 km/h (1 Bft) N-NW 337 5,5 C 7,9 C 5,6 km/h (1 Bft)
30.10.2020 04:08 7,9 C 8,4 C 10,0 C 85 % 1022,4 hPa 0,0 l/m 2,6 km/h (1 Bft) W-NW 292 5,5 C 7,9 C 7,7 km/h (2 Bft)
30.10.2020 04:06 7,8 C 8,4 C 10,0 C 85 % 1022,4 hPa 0,0 l/m 1,6 km/h (1 Bft) W 270 5,4 C 7,8 C 7,7 km/h (2 Bft)
30.10.2020 04:04 7,8 C 8,3 C 10,1 C 85 % 1022,4 hPa 0,0 l/m 1,1 km/h (1 Bft) SW 225 5,4 C 7,8 C 7,5 km/h (2 Bft)
30.10.2020 04:02 7,8 C 8,3 C 10,1 C 85 % 1022,4 hPa 0,0 l/m 0,6 km/h (0 Bft) NW 315 5,4 C 7,8 C 0,0 km/h (0 Bft)
30.10.2020 04:00 7,8 C 8,3 C 10,1 C 85 % 1022,8 hPa 0,0 l/m 0,6 km/h (0 Bft) NW 315 5,4 C 7,8 C 2,5 km/h (1 Bft)
30.10.2020 03:58 7,8 C 8,3 C 10,1 C 85 % 1022,8 hPa 0,0 l/m 0,3 km/h (0 Bft) N 360 5,4 C 7,8 C 3,3 km/h (1 Bft)
30.10.2020 03:56 7,8 C 8,3 C 10,1 C 85 % 1022,8 hPa 0,0 l/m 0,2 km/h (0 Bft) NO 45 5,4 C 7,8 C 3,3 km/h (1 Bft)
30.10.2020 03:54 7,8 C 8,3 C 10,1 C 85 % 1022,8 hPa 0,0 l/m 0,0 km/h (0 Bft) N 360 5,4 C 7,8 C 0,0 km/h (0 Bft)
30.10.2020 03:52 7,8 C 8,3 C 10,1 C 85 % 1022,8 hPa 0,0 l/m 0,2 km/h (0 Bft) O-NO 67 5,4 C 7,8 C 0,0 km/h (0 Bft)
30.10.2020 03:50 7,8 C 8,3 C 10,1 C 85 % 1022,8 hPa 0,0 l/m 0,3 km/h (0 Bft) W-SW 247 5,4 C 7,8 C 0,0 km/h (0 Bft)
30.10.2020 03:48 7,8 C 8,3 C 10,1 C 85 % 1022,8 hPa 0,0 l/m 0,5 km/h (0 Bft) SW 225 5,4 C 7,8 C 0,0 km/h (0 Bft)
30.10.2020 03:46 7,8 C 8,4 C 10,1 C 85 % 1022,8 hPa 0,0 l/m 0,6 km/h (0 Bft) SW 225 5,4 C 7,8 C 0,0 km/h (0 Bft)
30.10.2020 03:44 7,8 C 8,3 C 10,1 C 85 % 1022,8 hPa 0,0 l/m 0,6 km/h (0 Bft) N-NO 22 5,4 C 7,8 C 5,0 km/h (1 Bft)
30.10.2020 03:42 7,8 C 8,3 C 10,1 C 84 % 1022,8 hPa 0,0 l/m 0,5 km/h (0 Bft) W 270 5,3 C 7,8 C 5,0 km/h (1 Bft)
30.10.2020 03:40 7,8 C 8,3 C 10,1 C 84 % 1022,8 hPa 0,0 l/m 0,5 km/h (0 Bft) W 270 5,3 C 7,8 C 5,0 km/h (1 Bft)
30.10.2020 03:38 7,8 C 8,3 C 10,1 C 84 % 1022,8 hPa 0,0 l/m 0,3 km/h (0 Bft) SW 225 5,3 C 7,8 C 2,7 km/h (1 Bft)
30.10.2020 03:36 7,8 C 8,3 C 10,1 C 84 % 1022,8 hPa 0,0 l/m 0,0 km/h (0 Bft) N-NW 337 5,3 C 7,8 C 0,0 km/h (0 Bft)
30.10.2020 03:34 7,8 C 8,3 C 10,1 C 84 % 1022,8 hPa 0,0 l/m 0,0 km/h (0 Bft) S-SW 202 5,3 C 7,8 C 0,0 km/h (0 Bft)
30.10.2020 03:32 7,8 C 8,3 C 10,1 C 84 % 1022,8 hPa 0,0 l/m 0,0 km/h (0 Bft) O-SO 112 5,3 C 7,8 C 0,0 km/h (0 Bft)
30.10.2020 03:30 7,8 C 8,3 C 10,1 C 84 % 1022,8 hPa 0,0 l/m 0,2 km/h (0 Bft) W 270 5,3 C 7,8 C 0,0 km/h (0 Bft)
30.10.2020 03:28 7,8 C 8,3 C 10,1 C 84 % 1022,8 hPa 0,0 l/m 0,2 km/h (0 Bft) W-SW 247 5,3 C 7,8 C 0,0 km/h (0 Bft)
30.10.2020 03:26 7,8 C 8,3 C 10,1 C 84 % 1022,8 hPa 0,0 l/m 0,3 km/h (0 Bft) N-NW 337 5,3 C 7,8 C 0,0 km/h (0 Bft)
30.10.2020 03:24 7,8 C 8,3 C 10,1 C 84 % 1022,8 hPa 0,0 l/m 0,6 km/h (0 Bft) N-NW 337 5,3 C 7,8 C 2,3 km/h (1 Bft)
30.10.2020 03:22 7,8 C 8,3 C 10,1 C 84 % 1022,8 hPa 0,0 l/m 1,0 km/h (0 Bft) N-NO 22 5,3 C 7,8 C 5,2 km/h (1 Bft)
30.10.2020 03:20 7,8 C 8,3 C 10,1 C 84 % 1022,8 hPa 0,0 l/m 1,0 km/h (0 Bft) N-NO 22 5,3 C 7,8 C 2,3 km/h (1 Bft)
30.10.2020 03:18 7,8 C 8,2 C 10,1 C 84 % 1022,8 hPa 0,0 l/m 0,8 km/h (0 Bft) N-NO 22 5,3 C 7,8 C 5,2 km/h (1 Bft)
30.10.2020 03:16 7,8 C 8,2 C 10,1 C 84 % 1022,8 hPa 0,0 l/m 0,8 km/h (0 Bft) NW 315 5,3 C 7,8 C 5,2 km/h (1 Bft)
30.10.2020 03:14 7,8 C 8,2 C 10,1 C 84 % 1022,8 hPa 0,1 l/m 0,6 km/h (0 Bft) W-SW 247 5,3 C 7,8 C 4,1 km/h (1 Bft)
30.10.2020 03:12 7,8 C 8,2 C 10,1 C 84 % 1022,8 hPa 0,0 l/m 0,3 km/h (0 Bft) NW 315 5,3 C 7,8 C 4,1 km/h (1 Bft)
30.10.2020 03:10 7,8 C 8,2 C 10,1 C 84 % 1022,8 hPa 0,0 l/m 0,0 km/h (0 Bft) NW 315 5,3 C 7,8 C 0,0 km/h (0 Bft)
30.10.2020 03:08 7,8 C 8,2 C 10,1 C 84 % 1022,8 hPa 0,0 l/m 0,0 km/h (0 Bft) SW 225 5,3 C 7,8 C 0,0 km/h (0 Bft)
30.10.2020 03:06 7,8 C 8,2 C 10,1 C 84 % 1022,8 hPa 0,0 l/m 0,0 km/h (0 Bft) O-NO 67 5,3 C 7,8 C 0,0 km/h (0 Bft)
30.10.2020 03:04 7,8 C 8,2 C 10,1 C 84 % 1022,8 hPa 0,0 l/m 0,0 km/h (0 Bft) W 270 5,3 C 7,8 C 0,0 km/h (0 Bft)
30.10.2020 03:02 7,8 C 8,2 C 10,1 C 84 % 1022,8 hPa 0,0 l/m 0,0 km/h (0 Bft) W 270 5,3 C 7,8 C 0,0 km/h (0 Bft)
30.10.2020 03:00 7,8 C 8,2 C 10,1 C 84 % 1022,9 hPa 0,0 l/m 0,0 km/h (0 Bft) W 270 5,3 C 7,8 C 0,0 km/h (0 Bft)
30.10.2020 02:58 7,8 C 8,3 C 10,1 C 84 % 1022,9 hPa 0,0 l/m 0,2 km/h (0 Bft) N 360 5,3 C 7,8 C 0,0 km/h (0 Bft)
30.10.2020 02:56 7,8 C 8,3 C 10,1 C 84 % 1022,9 hPa 0,0 l/m 0,5 km/h (0 Bft) N-NW 337 5,3 C 7,8 C 0,0 km/h (0 Bft)
30.10.2020 02:54 7,8 C 8,2 C 10,1 C 84 % 1022,9 hPa 0,0 l/m 0,6 km/h (0 Bft) N-NO 22 5,3 C 7,8 C 0,0 km/h (0 Bft)
30.10.2020 02:52 7,8 C 8,2 C 10,1 C 84 % 1022,9 hPa 0,0 l/m 0,0 km/h (0 Bft) W-SW 247 5,3 C 7,8 C 0,0 km/h (0 Bft)
30.10.2020 02:50 7,8 C 8,2 C 10,1 C 84 % 1022,9 hPa 0,0 l/m 0,0 km/h (0 Bft) W-SW 247 5,3 C 7,8 C 0,0 km/h (0 Bft)
30.10.2020 02:48 7,8 C 8,2 C 10,1 C 84 % 1022,9 hPa 0,1 l/m 0,0 km/h (0 Bft) W-SW 247 5,3 C 7,8 C 0,0 km/h (0 Bft)
30.10.2020 02:46 7,8 C 8,2 C 10,1 C 83 % 1022,9 hPa 0,0 l/m 0,0 km/h (0 Bft) W-SW 247 5,1 C 7,8 C 0,0 km/h (0 Bft)
30.10.2020 02:44 7,9 C 8,2 C 10,1 C 83 % 1022,9 hPa 0,0 l/m 0,0 km/h (0 Bft) W-SW 247 5,2 C 7,9 C 0,0 km/h (0 Bft)
30.10.2020 02:42 7,9 C 8,2 C 10,1 C 83 % 1022,9 hPa 0,0 l/m 0,0 km/h (0 Bft) W-SW 247 5,2 C 7,9 C 0,0 km/h (0 Bft)
30.10.2020 02:40 7,9 C 8,1 C 10,1 C 83 % 1023,4 hPa 0,0 l/m 0,0 km/h (0 Bft) W-SW 247 5,2 C 7,9 C 0,0 km/h (0 Bft)
30.10.2020 02:38 7,9 C 8,1 C 10,1 C 83 % 1023,4 hPa 0,0 l/m 0,0 km/h (0 Bft) W-SW 247 5,2 C 7,9 C 0,0 km/h (0 Bft)
30.10.2020 02:36 7,9 C 8,2 C 10,1 C 83 % 1023,4 hPa 0,0 l/m 0,0 km/h (0 Bft) W-SW 247 5,2 C 7,9 C 0,0 km/h (0 Bft)
30.10.2020 02:34 7,9 C 8,2 C 10,1 C 83 % 1023,4 hPa 0,1 l/m 0,0 km/h (0 Bft) W-SW 247 5,2 C 7,9 C 0,0 km/h (0 Bft)
30.10.2020 02:32 7,9 C 8,2 C 10,1 C 83 % 1023,4 hPa 0,0 l/m 0,0 km/h (0 Bft) W-SW 247 5,2 C 7,9 C 0,0 km/h (0 Bft)
30.10.2020 02:30 8,1 C 8,2 C 10,1 C 83 % 1023,4 hPa 0,0 l/m 0,0 km/h (0 Bft) W-SW 247 5,4 C 8,1 C 0,0 km/h (0 Bft)
30.10.2020 02:28 8,1 C 8,2 C 10,1 C 83 % 1023,4 hPa 0,0 l/m 0,0 km/h (0 Bft) W-SW 247 5,4 C 8,1 C 0,0 km/h (0 Bft)
30.10.2020 02:26 8,1 C 8,2 C 10,1 C 83 % 1023,4 hPa 0,0 l/m 0,0 km/h (0 Bft) W-SW 247 5,4 C 8,1 C 0,0 km/h (0 Bft)
30.10.2020 02:24 8,1 C 8,2 C 10,1 C 83 % 1023,4 hPa 0,1 l/m 0,0 km/h (0 Bft) W-SW 247 5,4 C 8,1 C 0,0 km/h (0 Bft)
30.10.2020 02:22 8,1 C 8,2 C 10,1 C 82 % 1023,4 hPa 0,0 l/m 0,0 km/h (0 Bft) W-SW 247 5,2 C 8,1 C 0,0 km/h (0 Bft)
30.10.2020 02:20 8,1 C 8,3 C 10,1 C 82 % 1023,2 hPa 0,0 l/m 0,0 km/h (0 Bft) W-SW 247 5,2 C 8,1 C 0,0 km/h (0 Bft)
30.10.2020 02:18 8,2 C 8,2 C 10,1 C 82 % 1023,2 hPa 0,0 l/m 0,0 km/h (0 Bft) W-SW 247 5,3 C 8,2 C 0,0 km/h (0 Bft)
30.10.2020 02:16 8,2 C 8,3 C 10,1 C 82 % 1023,2 hPa 0,0 l/m 0,0 km/h (0 Bft) W-SW 247 5,3 C 8,2 C 0,0 km/h (0 Bft)
30.10.2020 02:14 8,2 C 8,3 C 10,1 C 82 % 1023,2 hPa 0,1 l/m 0,0 km/h (0 Bft) W-SW 247 5,3 C 8,2 C 0,0 km/h (0 Bft)
30.10.2020 02:12 8,2 C 8,3 C 10,1 C 82 % 1023,2 hPa 0,0 l/m 0,0 km/h (0 Bft) W-SW 247 5,3 C 8,2 C 0,0 km/h (0 Bft)
30.10.2020 02:10 8,2 C 8,2 C 10,1 C 82 % 1023,2 hPa 0,0 l/m 0,0 km/h (0 Bft) W-SW 247 5,3 C 8,2 C 0,0 km/h (0 Bft)
30.10.2020 02:08 8,2 C 8,2 C 10,1 C 82 % 1023,2 hPa 0,1 l/m 0,0 km/h (0 Bft) W-SW 247 5,3 C 8,2 C 0,0 km/h (0 Bft)
30.10.2020 02:06 8,2 C 8,3 C 10,1 C 82 % 1023,2 hPa 0,0 l/m 0,0 km/h (0 Bft) W-SW 247 5,3 C 8,2 C 0,0 km/h (0 Bft)
30.10.2020 02:04 8,2 C 8,3 C 10,1 C 82 % 1023,2 hPa 0,1 l/m 0,0 km/h (0 Bft) W-SW 247 5,3 C 8,2 C 0,0 km/h (0 Bft)
30.10.2020 02:02 8,1 C 8,3 C 10,1 C 82 % 1023,2 hPa 0,0 l/m 0,0 km/h (0 Bft) W-SW 247 5,2 C 8,1 C 0,0 km/h (0 Bft)
30.10.2020 02:00 8,1 C 8,3 C 10,1 C 82 % 1023,6 hPa 0,0 l/m 0,0 km/h (0 Bft) W-SW 247 5,2 C 8,1 C 0,0 km/h (0 Bft)
30.10.2020 01:58 8,1 C 8,2 C 10,1 C 82 % 1023,6 hPa 0,0 l/m 0,0 km/h (0 Bft) W-SW 247 5,2 C 8,1 C 0,0 km/h (0 Bft)
30.10.2020 01:56 8,2 C 8,2 C 10,1 C 82 % 1023,6 hPa 0,1 l/m 0,0 km/h (0 Bft) W-SW 247 5,3 C 8,2 C 0,0 km/h (0 Bft)
30.10.2020 01:54 8,2 C 8,3 C 10,1 C 82 % 1023,6 hPa 0,0 l/m 0,0 km/h (0 Bft) W-SW 247 5,3 C 8,2 C 0,0 km/h (0 Bft)
30.10.2020 01:52 8,3 C 8,3 C 10,1 C 82 % 1023,6 hPa 0,0 l/m 0,0 km/h (0 Bft) W-SW 247 5,4 C 8,3 C 0,0 km/h (0 Bft)
30.10.2020 01:50 8,3 C 8,3 C 10,1 C 82 % 1023,6 hPa 0,1 l/m 0,0 km/h (0 Bft) W-SW 247 5,4 C 8,3 C 0,0 km/h (0 Bft)
30.10.2020 01:48 8,2 C 8,3 C 10,1 C 82 % 1023,6 hPa 0,0 l/m 0,0 km/h (0 Bft) W-SW 247 5,3 C 8,2 C 0,0 km/h (0 Bft)
30.10.2020 01:46 8,2 C 8,2 C 10,1 C 82 % 1023,6 hPa 0,0 l/m 0,0 km/h (0 Bft) W-SW 247 5,3 C 8,2 C 0,0 km/h (0 Bft)
30.10.2020 01:44 8,2 C 8,2 C 10,0 C 82 % 1023,6 hPa 0,0 l/m 0,0 km/h (0 Bft) W-SW 247 5,3 C 8,2 C 0,0 km/h (0 Bft)
30.10.2020 01:42 8,2 C 8,2 C 10,1 C 81 % 1023,6 hPa 0,0 l/m 0,0 km/h (0 Bft) W-SW 247 5,1 C 8,2 C 0,0 km/h (0 Bft)
30.10.2020 01:40 8,2 C 8,2 C 10,1 C 81 % 1023,5 hPa 0,0 l/m 0,0 km/h (0 Bft) W-SW 247 5,1 C 8,2 C 0,0 km/h (0 Bft)
30.10.2020 01:38 8,2 C 8,2 C 10,1 C 81 % 1023,5 hPa 0,0 l/m 0,0 km/h (0 Bft) W-SW 247 5,1 C 8,2 C 0,0 km/h (0 Bft)
30.10.2020 01:36 8,2 C 8,2 C 10,1 C 81 % 1023,5 hPa 0,1 l/m 0,0 km/h (0 Bft) W-SW 247 5,1 C 8,2 C 0,0 km/h (0 Bft)
30.10.2020 01:34 8,3 C 8,2 C 10,0 C 81 % 1023,5 hPa 0,1 l/m 0,0 km/h (0 Bft) W-SW 247 5,2 C 8,3 C 0,0 km/h (0 Bft)
30.10.2020 01:32 8,3 C 8,2 C 10,0 C 81 % 1023,5 hPa 0,0 l/m 0,0 km/h (0 Bft) W-SW 247 5,2 C 8,3 C 0,0 km/h (0 Bft)
30.10.2020 01:30 8,4 C 8,3 C 10,0 C 81 % 1023,5 hPa 0,0 l/m 0,0 km/h (0 Bft) W-SW 247 5,3 C 8,4 C 0,0 km/h (0 Bft)
30.10.2020 01:28 8,3 C 8,2 C 10,0 C 81 % 1023,5 hPa 0,0 l/m 0,0 km/h (0 Bft) W-SW 247 5,2 C 8,3 C 0,0 km/h (0 Bft)
30.10.2020 01:26 8,4 C 8,3 C 10,0 C 81 % 1023,5 hPa 0,0 l/m 0,0 km/h (0 Bft) W-SW 247 5,3 C 8,4 C 0,0 km/h (0 Bft)
30.10.2020 01:24 8,3 C 8,2 C 10,0 C 81 % 1023,5 hPa 0,0 l/m 0,0 km/h (0 Bft) W-SW 247 5,2 C 8,3 C 0,0 km/h (0 Bft)
30.10.2020 01:22 8,3 C 8,3 C 10,0 C 81 % 1023,5 hPa 0,0 l/m 0,0 km/h (0 Bft) W-SW 247 5,2 C 8,3 C 0,0 km/h (0 Bft)
30.10.2020 01:20 8,3 C 8,3 C 10,0 C 81 % 1023,2 hPa 0,0 l/m 0,0 km/h (0 Bft) W-SW 247 5,2 C 8,3 C 0,0 km/h (0 Bft)
30.10.2020 01:18 8,3 C 8,3 C 10,0 C 81 % 1023,2 hPa 0,1 l/m 0,0 km/h (0 Bft) W-SW 247 5,2 C 8,3 C 0,0 km/h (0 Bft)
30.10.2020 01:16 8,3 C 8,2 C 10,0 C 81 % 1023,2 hPa 0,0 l/m 0,0 km/h (0 Bft) W-SW 247 5,2 C 8,3 C 0,0 km/h (0 Bft)
30.10.2020 01:14 8,3 C 8,1 C 10,0 C 81 % 1023,2 hPa 0,0 l/m 0,0 km/h (0 Bft) W-SW 247 5,2 C 8,3 C 0,0 km/h (0 Bft)
30.10.2020 01:12 8,3 C 8,3 C 10,0 C 81 % 1023,2 hPa 0,0 l/m 0,0 km/h (0 Bft) W-SW 247 5,2 C 8,3 C 0,0 km/h (0 Bft)
30.10.2020 01:10 8,4 C 8,3 C 10,0 C 81 % 1023,2 hPa 0,0 l/m 0,0 km/h (0 Bft) W-SW 247 5,3 C 8,4 C 0,0 km/h (0 Bft)
30.10.2020 01:08 8,3 C 8,3 C 10,0 C 81 % 1023,2 hPa 0,0 l/m 0,0 km/h (0 Bft) W-SW 247 5,2 C 8,3 C 0,0 km/h (0 Bft)
30.10.2020 01:06 8,3 C 8,3 C 10,0 C 81 % 1023,2 hPa 0,0 l/m 0,0 km/h (0 Bft) W-SW 247 5,2 C 8,3 C 0,0 km/h (0 Bft)
30.10.2020 01:04 8,3 C 8,3 C 10,0 C 81 % 1023,2 hPa 0,0 l/m 0,0 km/h (0 Bft) W-SW 247 5,2 C 8,3 C 0,0 km/h (0 Bft)
30.10.2020 01:02 8,3 C 8,3 C 10,0 C 82 % 1023,2 hPa 0,0 l/m 0,0 km/h (0 Bft) W-SW 247 5,4 C 8,3 C 0,0 km/h (0 Bft)
30.10.2020 01:00 8,3 C 8,2 C 10,0 C 82 % 1023,5 hPa 0,0 l/m 0,0 km/h (0 Bft) W-SW 247 5,4 C 8,3 C 0,0 km/h (0 Bft)
30.10.2020 00:58 8,3 C 8,2 C 10,0 C 82 % 1023,5 hPa 0,0 l/m 0,0 km/h (0 Bft) W-SW 247 5,4 C 8,3 C 0,0 km/h (0 Bft)
30.10.2020 00:56 8,3 C 8,2 C 10,0 C 81 % 1023,5 hPa 0,0 l/m 0,0 km/h (0 Bft) W-SW 247 5,2 C 8,3 C 0,0 km/h (0 Bft)
30.10.2020 00:54 8,4 C 8,3 C 10,0 C 81 % 1023,5 hPa 0,0 l/m 0,0 km/h (0 Bft) W-SW 247 5,3 C 8,4 C 0,0 km/h (0 Bft)
30.10.2020 00:52 8,3 C 8,3 C 10,0 C 81 % 1023,5 hPa 0,0 l/m 0,0 km/h (0 Bft) W-SW 247 5,2 C 8,3 C 0,0 km/h (0 Bft)
30.10.2020 00:50 8,3 C 8,3 C 10,0 C 81 % 1023,5 hPa 0,0 l/m 0,0 km/h (0 Bft) W-SW 247 5,2 C 8,3 C 0,0 km/h (0 Bft)
30.10.2020 00:48 8,3 C 8,3 C 10,0 C 81 % 1023,5 hPa 0,0 l/m 0,0 km/h (0 Bft) W-SW 247 5,2 C 8,3 C 0,0 km/h (0 Bft)
30.10.2020 00:46 8,3 C 8,3 C 10,0 C 81 % 1023,5 hPa 0,0 l/m 0,0 km/h (0 Bft) W-SW 247 5,2 C 8,3 C 0,0 km/h (0 Bft)
30.10.2020 00:44 8,3 C 8,3 C 10,0 C 81 % 1023,5 hPa 0,0 l/m 0,0 km/h (0 Bft) W-SW 247 5,2 C 8,3 C 0,0 km/h (0 Bft)
30.10.2020 00:42 8,3 C 8,3 C 10,0 C 82 % 1023,5 hPa 0,0 l/m 0,0 km/h (0 Bft) W-SW 247 5,4 C 8,3 C 0,0 km/h (0 Bft)
30.10.2020 00:40 8,3 C 8,3 C 10,0 C 82 % 1023,1 hPa 0,0 l/m 0,0 km/h (0 Bft) W-SW 247 5,4 C 8,3 C 0,0 km/h (0 Bft)
30.10.2020 00:38 8,3 C 8,2 C 10,0 C 82 % 1023,1 hPa 0,0 l/m 0,0 km/h (0 Bft) W-SW 247 5,4 C 8,3 C 0,0 km/h (0 Bft)
30.10.2020 00:36 8,3 C 8,1 C 10,0 C 82 % 1023,1 hPa 0,0 l/m 0,0 km/h (0 Bft) W-SW 247 5,4 C 8,3 C 0,0 km/h (0 Bft)
30.10.2020 00:34 8,2 C 8,2 C 10,0 C 82 % 1023,1 hPa 0,0 l/m 0,0 km/h (0 Bft) W-SW 247 5,3 C 8,2 C 0,0 km/h (0 Bft)
30.10.2020 00:32 8,2 C 8,2 C 10,0 C 82 % 1023,1 hPa 0,0 l/m 0,0 km/h (0 Bft) W-SW 247 5,3 C 8,2 C 0,0 km/h (0 Bft)
30.10.2020 00:30 8,3 C 8,2 C 10,0 C 82 % 1023,1 hPa 0,0 l/m 0,0 km/h (0 Bft) W-SW 247 5,4 C 8,3 C 0,0 km/h (0 Bft)
30.10.2020 00:28 8,2 C 8,2 C 10,0 C 82 % 1023,1 hPa 0,0 l/m 0,0 km/h (0 Bft) W-SW 247 5,3 C 8,2 C 0,0 km/h (0 Bft)
30.10.2020 00:26 8,3 C 8,2 C 10,0 C 82 % 1023,1 hPa 0,0 l/m 0,0 km/h (0 Bft) W-SW 247 5,4 C 8,3 C 0,0 km/h (0 Bft)
30.10.2020 00:24 8,2 C 8,2 C 10,0 C 82 % 1023,1 hPa 0,1 l/m 0,0 km/h (0 Bft) W-SW 247 5,3 C 8,2 C 0,0 km/h (0 Bft)
30.10.2020 00:22 8,3 C 8,3 C 10,1 C 82 % 1023,1 hPa 0,0 l/m 0,0 km/h (0 Bft) W-SW 247 5,4 C 8,3 C 0,0 km/h (0 Bft)
30.10.2020 00:20 8,3 C 8,3 C 10,0 C 82 % 1023,3 hPa 0,0 l/m 0,0 km/h (0 Bft) W-SW 247 5,4 C 8,3 C 0,0 km/h (0 Bft)
30.10.2020 00:18 8,2 C 8,3 C 10,0 C 82 % 1023,3 hPa 0,0 l/m 0,0 km/h (0 Bft) W-SW 247 5,3 C 8,2 C 0,0 km/h (0 Bft)
30.10.2020 00:16 8,3 C 8,4 C 10,0 C 82 % 1023,3 hPa 0,0 l/m 0,0 km/h (0 Bft) W-SW 247 5,4 C 8,3 C 0,0 km/h (0 Bft)
30.10.2020 00:14 8,3 C 8,4 C 10,0 C 82 % 1023,3 hPa 0,0 l/m 0,0 km/h (0 Bft) W-SW 247 5,4 C 8,3 C 0,0 km/h (0 Bft)
30.10.2020 00:12 8,2 C 8,5 C 10,0 C 81 % 1023,3 hPa 0,0 l/m 0,0 km/h (0 Bft) W-SW 247 5,1 C 8,2 C 0,0 km/h (0 Bft)
30.10.2020 00:10 8,2 C 8,5 C 10,0 C 81 % 1023,3 hPa 0,0 l/m 0,0 km/h (0 Bft) W-SW 247 5,1 C 8,2 C 0,0 km/h (0 Bft)
30.10.2020 00:08 8,3 C 8,4 C 10,0 C 81 % 1023,3 hPa 0,0 l/m 0,0 km/h (0 Bft) W-SW 247 5,2 C 8,3 C 0,0 km/h (0 Bft)
30.10.2020 00:06 8,3 C 8,3 C 10,1 C 81 % 1023,3 hPa 0,0 l/m 0,0 km/h (0 Bft) W-SW 247 5,2 C 8,3 C 0,0 km/h (0 Bft)
30.10.2020 00:04 8,3 C 8,3 C 10,1 C 81 % 1023,3 hPa 0,0 l/m 0,0 km/h (0 Bft) W-SW 247 5,2 C 8,3 C 0,0 km/h (0 Bft)
30.10.2020 00:02 8,5 C 8,5 C 10,1 C 81 % 1023,3 hPa 0,0 l/m 0,0 km/h (0 Bft) W-SW 247 5,4 C 8,5 C 0,0 km/h (0 Bft)
30.10.2020 00:00 8,5 C 8,5 C 10,1 C 81 % 1023,5 hPa 0,0 l/m 0,0 km/h (0 Bft) W-SW 247 5,4 C 8,5 C 0,0 km/h (0 Bft)
_ Min-Zeit 02:46 00:36 00:08 17:06 04:02 - 00:00 - - 02:46 02:46 00:00
Minimum _ 7,8 C 8,1 C 10,0 C 74 % 1022,4 hPa - 0,0 km/h (0 Bft) - - 5,1 C 7,8 C 0,0 km/h (0 Bft)
_ Max-Zeit 16:04 16:08 15:54 03:44 01:42 00:24 17:14 - - 13:32 15:10 13:32
Maximum _ 13,5 C 13,6 C 10,6 C 85 % 1023,6 hPa 0,1 l/m 15,8 km/h
NW (3 Bft)
- - 9,4 C 11,9 C 50,6 km/h
W (7 Bft)
Durchschnitt _ 10,6 C 10,8 C 10,2 C 81 % 1023,0 hPa #4,9 l/m 6,3 km/h (2 Bft) NW - 7,5 C 9,3 C 12,7 km/h (3 Bft)